<?xml version="1.0" encoding="UTF-8" standalone="no" ?>
<gpx xmlns="http://www.topografix.com/GPX/1/1" xmlns:xsi="http://www.w3.org/2001/XMLSchema-instance" xsi:schemaLocation="http://www.topografix.com/GPX/1/1 http://www.topografix.com/GPX/1/1/gpx.xsd" version="1.1" creator="VisuGPX - https://www.visugpx.com">
  <metadata>
    <name>RANDO MOUDEYRES  18KM</name>
    <desc><![CDATA[RANDO MOUDEYRES 18 KM .DEPART ARRIVEE MOUDEYRES.FREYCENET LA TOUR.ETANG DES BARTHES.]]></desc>
  </metadata>
  <trk>
    <name><![CDATA[18-JUIL-21 14:47:06_1]]></name>
    <extensions>
      <line xmlns="http://www.topografix.com/GPX/gpx_style/0/2">
        <color>0000FF</color>
        <width>4</width>
      </line>
    </extensions>
    <trkseg>
      <trkpt lat="44.95632" lon="4.10188">
        <ele>1161.1</ele>
      </trkpt>
      <trkpt lat="44.95642" lon="4.10204">
        <ele>1161.1</ele>
      </trkpt>
      <trkpt lat="44.9566" lon="4.10237">
        <ele>1160.5</ele>
      </trkpt>
      <trkpt lat="44.95665" lon="4.10251">
        <ele>1160.2</ele>
      </trkpt>
      <trkpt lat="44.95669" lon="4.1028">
        <ele>1160.7</ele>
      </trkpt>
      <trkpt lat="44.95671" lon="4.10333">
        <ele>1160.7</ele>
      </trkpt>
      <trkpt lat="44.95692" lon="4.10387">
        <ele>1160</ele>
      </trkpt>
      <trkpt lat="44.95694" lon="4.10412">
        <ele>1160.8</ele>
      </trkpt>
      <trkpt lat="44.95709" lon="4.10477">
        <ele>1161.6</ele>
      </trkpt>
      <trkpt lat="44.9571" lon="4.10486">
        <ele>1161.9</ele>
      </trkpt>
      <trkpt lat="44.9571" lon="4.10488">
        <ele>1162</ele>
      </trkpt>
      <trkpt lat="44.95705" lon="4.10496">
        <ele>1152.76</ele>
        <time>2021-07-18T07:58:38Z</time>
      </trkpt>
      <trkpt lat="44.95703" lon="4.10502">
        <ele>1153.72</ele>
        <time>2021-07-18T07:58:42Z</time>
      </trkpt>
      <trkpt lat="44.95689" lon="4.10529">
        <ele>1155.16</ele>
        <time>2021-07-18T07:59:00Z</time>
      </trkpt>
      <trkpt lat="44.95684" lon="4.10543">
        <ele>1156.6</ele>
        <time>2021-07-18T07:59:09Z</time>
      </trkpt>
      <trkpt lat="44.9569" lon="4.10573">
        <ele>1159.01</ele>
        <time>2021-07-18T07:59:26Z</time>
      </trkpt>
      <trkpt lat="44.957" lon="4.10604">
        <ele>1161.41</ele>
        <time>2021-07-18T07:59:45Z</time>
      </trkpt>
      <trkpt lat="44.95692" lon="4.10629">
        <ele>1163.81</ele>
        <time>2021-07-18T08:00:01Z</time>
      </trkpt>
      <trkpt lat="44.95675" lon="4.10645">
        <ele>1166.22</ele>
        <time>2021-07-18T08:00:19Z</time>
      </trkpt>
      <trkpt lat="44.95673" lon="4.10647">
        <ele>1167.18</ele>
        <time>2021-07-18T08:00:21Z</time>
      </trkpt>
      <trkpt lat="44.95656" lon="4.10666">
        <ele>1172.47</ele>
        <time>2021-07-18T08:00:39Z</time>
      </trkpt>
      <trkpt lat="44.95639" lon="4.10692">
        <ele>1174.39</ele>
        <time>2021-07-18T08:00:58Z</time>
      </trkpt>
      <trkpt lat="44.95625" lon="4.10713">
        <ele>1176.79</ele>
        <time>2021-07-18T08:01:15Z</time>
      </trkpt>
      <trkpt lat="44.95608" lon="4.10738">
        <ele>1179.19</ele>
        <time>2021-07-18T08:01:33Z</time>
      </trkpt>
      <trkpt lat="44.95594" lon="4.10765">
        <ele>1181.6</ele>
        <time>2021-07-18T08:01:52Z</time>
      </trkpt>
      <trkpt lat="44.95593" lon="4.10799">
        <ele>1182.08</ele>
        <time>2021-07-18T08:02:10Z</time>
      </trkpt>
      <trkpt lat="44.95595" lon="4.10828">
        <ele>1184</ele>
        <time>2021-07-18T08:02:26Z</time>
      </trkpt>
      <trkpt lat="44.95599" lon="4.10863">
        <ele>1184.48</ele>
        <time>2021-07-18T08:02:45Z</time>
      </trkpt>
      <trkpt lat="44.95598" lon="4.10903">
        <ele>1184</ele>
        <time>2021-07-18T08:03:06Z</time>
      </trkpt>
      <trkpt lat="44.95598" lon="4.1092">
        <ele>1184</ele>
        <time>2021-07-18T08:03:15Z</time>
      </trkpt>
      <trkpt lat="44.95597" lon="4.10954">
        <ele>1184</ele>
        <time>2021-07-18T08:03:34Z</time>
      </trkpt>
      <trkpt lat="44.956" lon="4.10994">
        <ele>1184.48</ele>
        <time>2021-07-18T08:03:52Z</time>
      </trkpt>
      <trkpt lat="44.95607" lon="4.11029">
        <ele>1184.48</ele>
        <time>2021-07-18T08:04:11Z</time>
      </trkpt>
      <trkpt lat="44.95614" lon="4.11063">
        <ele>1183.52</ele>
        <time>2021-07-18T08:04:30Z</time>
      </trkpt>
      <trkpt lat="44.95619" lon="4.11098">
        <ele>1182.08</ele>
        <time>2021-07-18T08:04:49Z</time>
      </trkpt>
      <trkpt lat="44.9562" lon="4.1113">
        <ele>1181.12</ele>
        <time>2021-07-18T08:05:07Z</time>
      </trkpt>
      <trkpt lat="44.95605" lon="4.11151">
        <ele>1181.6</ele>
        <time>2021-07-18T08:05:24Z</time>
      </trkpt>
      <trkpt lat="44.95587" lon="4.11169">
        <ele>1181.6</ele>
        <time>2021-07-18T08:05:40Z</time>
      </trkpt>
      <trkpt lat="44.95567" lon="4.11193">
        <ele>1181.12</ele>
        <time>2021-07-18T08:06:00Z</time>
      </trkpt>
      <trkpt lat="44.9555" lon="4.11207">
        <ele>1179.67</ele>
        <time>2021-07-18T08:06:16Z</time>
      </trkpt>
      <trkpt lat="44.95536" lon="4.11217">
        <ele>1178.23</ele>
        <time>2021-07-18T08:06:31Z</time>
      </trkpt>
      <trkpt lat="44.95524" lon="4.11227">
        <ele>1175.35</ele>
        <time>2021-07-18T08:06:44Z</time>
      </trkpt>
      <trkpt lat="44.95514" lon="4.11233">
        <ele>1171.98</ele>
        <time>2021-07-18T08:06:59Z</time>
      </trkpt>
      <trkpt lat="44.95502" lon="4.11244">
        <ele>1168.14</ele>
        <time>2021-07-18T08:07:16Z</time>
      </trkpt>
      <trkpt lat="44.95497" lon="4.11248">
        <ele>1166.22</ele>
        <time>2021-07-18T08:07:24Z</time>
      </trkpt>
      <trkpt lat="44.95487" lon="4.11255">
        <ele>1163.81</ele>
        <time>2021-07-18T08:07:40Z</time>
      </trkpt>
      <trkpt lat="44.95479" lon="4.11256">
        <ele>1160.45</ele>
        <time>2021-07-18T08:07:50Z</time>
      </trkpt>
      <trkpt lat="44.95475" lon="4.11249">
        <ele>1161.41</ele>
        <time>2021-07-18T08:08:00Z</time>
      </trkpt>
      <trkpt lat="44.95475" lon="4.11249">
        <ele>1161.41</ele>
        <time>2021-07-18T08:08:01Z</time>
      </trkpt>
      <trkpt lat="44.95466" lon="4.11223">
        <ele>1162.85</ele>
        <time>2021-07-18T08:08:17Z</time>
      </trkpt>
      <trkpt lat="44.9546" lon="4.11207">
        <ele>1166.22</ele>
        <time>2021-07-18T08:08:29Z</time>
      </trkpt>
      <trkpt lat="44.95457" lon="4.112">
        <ele>1166.7</ele>
        <time>2021-07-18T08:08:34Z</time>
      </trkpt>
      <trkpt lat="44.95451" lon="4.11181">
        <ele>1169.1</ele>
        <time>2021-07-18T08:08:49Z</time>
      </trkpt>
      <trkpt lat="44.9545" lon="4.11178">
        <ele>1169.58</ele>
        <time>2021-07-18T08:08:51Z</time>
      </trkpt>
      <trkpt lat="44.95442" lon="4.11157">
        <ele>1171.5</ele>
        <time>2021-07-18T08:09:07Z</time>
      </trkpt>
      <trkpt lat="44.95439" lon="4.1114">
        <ele>1173.43</ele>
        <time>2021-07-18T08:09:20Z</time>
      </trkpt>
      <trkpt lat="44.95432" lon="4.11123">
        <ele>1174.87</ele>
        <time>2021-07-18T08:09:34Z</time>
      </trkpt>
      <trkpt lat="44.95429" lon="4.11113">
        <ele>1176.31</ele>
        <time>2021-07-18T08:09:42Z</time>
      </trkpt>
      <trkpt lat="44.95425" lon="4.11091">
        <ele>1180.64</ele>
        <time>2021-07-18T08:09:59Z</time>
      </trkpt>
      <trkpt lat="44.95422" lon="4.11072">
        <ele>1182.56</ele>
        <time>2021-07-18T08:10:13Z</time>
      </trkpt>
      <trkpt lat="44.95419" lon="4.11055">
        <ele>1184</ele>
        <time>2021-07-18T08:10:25Z</time>
      </trkpt>
      <trkpt lat="44.95415" lon="4.11039">
        <ele>1186.4</ele>
        <time>2021-07-18T08:10:36Z</time>
      </trkpt>
      <trkpt lat="44.95413" lon="4.11032">
        <ele>1187.85</ele>
        <time>2021-07-18T08:10:41Z</time>
      </trkpt>
      <trkpt lat="44.95412" lon="4.11027">
        <ele>1188.81</ele>
        <time>2021-07-18T08:10:45Z</time>
      </trkpt>
      <trkpt lat="44.95405" lon="4.11005">
        <ele>1192.17</ele>
        <time>2021-07-18T08:11:00Z</time>
      </trkpt>
      <trkpt lat="44.95402" lon="4.10996">
        <ele>1193.13</ele>
        <time>2021-07-18T08:11:07Z</time>
      </trkpt>
      <trkpt lat="44.95393" lon="4.10977">
        <ele>1195.06</ele>
        <time>2021-07-18T08:11:22Z</time>
      </trkpt>
      <trkpt lat="44.9539" lon="4.10967">
        <ele>1195.54</ele>
        <time>2021-07-18T08:11:29Z</time>
      </trkpt>
      <trkpt lat="44.95384" lon="4.1094">
        <ele>1196.02</ele>
        <time>2021-07-18T08:11:46Z</time>
      </trkpt>
      <trkpt lat="44.95379" lon="4.10911">
        <ele>1196.02</ele>
        <time>2021-07-18T08:12:02Z</time>
      </trkpt>
      <trkpt lat="44.95374" lon="4.10867">
        <ele>1195.06</ele>
        <time>2021-07-18T08:12:25Z</time>
      </trkpt>
      <trkpt lat="44.9537" lon="4.10832">
        <ele>1195.54</ele>
        <time>2021-07-18T08:12:45Z</time>
      </trkpt>
      <trkpt lat="44.95369" lon="4.108">
        <ele>1195.54</ele>
        <time>2021-07-18T08:13:03Z</time>
      </trkpt>
      <trkpt lat="44.9537" lon="4.1077">
        <ele>1195.06</ele>
        <time>2021-07-18T08:13:20Z</time>
      </trkpt>
      <trkpt lat="44.95373" lon="4.1074">
        <ele>1195.54</ele>
        <time>2021-07-18T08:13:37Z</time>
      </trkpt>
      <trkpt lat="44.95376" lon="4.107">
        <ele>1194.58</ele>
        <time>2021-07-18T08:13:59Z</time>
      </trkpt>
      <trkpt lat="44.9538" lon="4.10661">
        <ele>1193.13</ele>
        <time>2021-07-18T08:14:20Z</time>
      </trkpt>
      <trkpt lat="44.95386" lon="4.10639">
        <ele>1190.25</ele>
        <time>2021-07-18T08:14:33Z</time>
      </trkpt>
      <trkpt lat="44.95397" lon="4.10603">
        <ele>1188.33</ele>
        <time>2021-07-18T08:14:53Z</time>
      </trkpt>
      <trkpt lat="44.95397" lon="4.10568">
        <ele>1189.77</ele>
        <time>2021-07-18T08:15:11Z</time>
      </trkpt>
      <trkpt lat="44.95393" lon="4.10518">
        <ele>1190.73</ele>
        <time>2021-07-18T08:15:36Z</time>
      </trkpt>
      <trkpt lat="44.95395" lon="4.10477">
        <ele>1189.29</ele>
        <time>2021-07-18T08:15:57Z</time>
      </trkpt>
      <trkpt lat="44.95402" lon="4.10435">
        <ele>1187.85</ele>
        <time>2021-07-18T08:16:19Z</time>
      </trkpt>
      <trkpt lat="44.95407" lon="4.10405">
        <ele>1186.88</ele>
        <time>2021-07-18T08:16:35Z</time>
      </trkpt>
      <trkpt lat="44.95406" lon="4.10401">
        <ele>1186.88</ele>
        <time>2021-07-18T08:16:37Z</time>
      </trkpt>
      <trkpt lat="44.95407" lon="4.10363">
        <ele>1187.37</ele>
        <time>2021-07-18T08:16:56Z</time>
      </trkpt>
      <trkpt lat="44.95402" lon="4.10335">
        <ele>1186.4</ele>
        <time>2021-07-18T08:17:12Z</time>
      </trkpt>
      <trkpt lat="44.95397" lon="4.10308">
        <ele>1187.85</ele>
        <time>2021-07-18T08:17:27Z</time>
      </trkpt>
      <trkpt lat="44.95392" lon="4.10283">
        <ele>1187.37</ele>
        <time>2021-07-18T08:17:41Z</time>
      </trkpt>
      <trkpt lat="44.95386" lon="4.10257">
        <ele>1184.96</ele>
        <time>2021-07-18T08:17:57Z</time>
      </trkpt>
      <trkpt lat="44.95373" lon="4.10253">
        <ele>1184.48</ele>
        <time>2021-07-18T08:18:11Z</time>
      </trkpt>
      <trkpt lat="44.95372" lon="4.10255">
        <ele>1184.96</ele>
        <time>2021-07-18T08:18:13Z</time>
      </trkpt>
      <trkpt lat="44.95357" lon="4.10272">
        <ele>1184.96</ele>
        <time>2021-07-18T08:18:29Z</time>
      </trkpt>
      <trkpt lat="44.95338" lon="4.10292">
        <ele>1187.37</ele>
        <time>2021-07-18T08:18:47Z</time>
      </trkpt>
      <trkpt lat="44.95321" lon="4.10312">
        <ele>1188.81</ele>
        <time>2021-07-18T08:19:04Z</time>
      </trkpt>
      <trkpt lat="44.95304" lon="4.10329">
        <ele>1190.73</ele>
        <time>2021-07-18T08:19:20Z</time>
      </trkpt>
      <trkpt lat="44.95295" lon="4.10337">
        <ele>1190.73</ele>
        <time>2021-07-18T08:19:28Z</time>
      </trkpt>
      <trkpt lat="44.95273" lon="4.10355">
        <ele>1193.13</ele>
        <time>2021-07-18T08:19:49Z</time>
      </trkpt>
      <trkpt lat="44.9525" lon="4.10369">
        <ele>1194.09</ele>
        <time>2021-07-18T08:20:09Z</time>
      </trkpt>
      <trkpt lat="44.95235" lon="4.10377">
        <ele>1195.06</ele>
        <time>2021-07-18T08:20:22Z</time>
      </trkpt>
      <trkpt lat="44.95227" lon="4.10381">
        <ele>1196.02</ele>
        <time>2021-07-18T08:20:29Z</time>
      </trkpt>
      <trkpt lat="44.95205" lon="4.10396">
        <ele>1198.9</ele>
        <time>2021-07-18T08:20:49Z</time>
      </trkpt>
      <trkpt lat="44.95185" lon="4.1041">
        <ele>1201.3</ele>
        <time>2021-07-18T08:21:08Z</time>
      </trkpt>
      <trkpt lat="44.95167" lon="4.10424">
        <ele>1203.71</ele>
        <time>2021-07-18T08:21:25Z</time>
      </trkpt>
      <trkpt lat="44.95153" lon="4.10433">
        <ele>1205.63</ele>
        <time>2021-07-18T08:21:38Z</time>
      </trkpt>
      <trkpt lat="44.95149" lon="4.10424">
        <ele>1206.59</ele>
        <time>2021-07-18T08:21:44Z</time>
      </trkpt>
      <trkpt lat="44.95156" lon="4.10392">
        <ele>1209</ele>
        <time>2021-07-18T08:22:03Z</time>
      </trkpt>
      <trkpt lat="44.95166" lon="4.10365">
        <ele>1209</ele>
        <time>2021-07-18T08:22:20Z</time>
      </trkpt>
      <trkpt lat="44.9517" lon="4.10332">
        <ele>1209.48</ele>
        <time>2021-07-18T08:22:38Z</time>
      </trkpt>
      <trkpt lat="44.95164" lon="4.10296">
        <ele>1211.88</ele>
        <time>2021-07-18T08:22:58Z</time>
      </trkpt>
      <trkpt lat="44.95158" lon="4.10272">
        <ele>1211.88</ele>
        <time>2021-07-18T08:23:13Z</time>
      </trkpt>
      <trkpt lat="44.95144" lon="4.10251">
        <ele>1209.96</ele>
        <time>2021-07-18T08:23:30Z</time>
      </trkpt>
      <trkpt lat="44.95129" lon="4.10241">
        <ele>1211.4</ele>
        <time>2021-07-18T08:23:45Z</time>
      </trkpt>
      <trkpt lat="44.95115" lon="4.10238">
        <ele>1211.88</ele>
        <time>2021-07-18T08:23:58Z</time>
      </trkpt>
      <trkpt lat="44.95102" lon="4.10238">
        <ele>1211.88</ele>
        <time>2021-07-18T08:24:11Z</time>
      </trkpt>
      <trkpt lat="44.9509" lon="4.10241">
        <ele>1213.32</ele>
        <time>2021-07-18T08:24:25Z</time>
      </trkpt>
      <trkpt lat="44.95086" lon="4.10241">
        <ele>1214.76</ele>
        <time>2021-07-18T08:24:29Z</time>
      </trkpt>
      <trkpt lat="44.95074" lon="4.10243">
        <ele>1219.09</ele>
        <time>2021-07-18T08:24:44Z</time>
      </trkpt>
      <trkpt lat="44.95069" lon="4.10246">
        <ele>1221.49</ele>
        <time>2021-07-18T08:24:53Z</time>
      </trkpt>
      <trkpt lat="44.95063" lon="4.10248">
        <ele>1224.38</ele>
        <time>2021-07-18T08:25:00Z</time>
      </trkpt>
      <trkpt lat="44.95053" lon="4.10255">
        <ele>1226.78</ele>
        <time>2021-07-18T08:25:14Z</time>
      </trkpt>
      <trkpt lat="44.9504" lon="4.1026">
        <ele>1230.62</ele>
        <time>2021-07-18T08:25:27Z</time>
      </trkpt>
      <trkpt lat="44.95023" lon="4.10267">
        <ele>1235.43</ele>
        <time>2021-07-18T08:25:42Z</time>
      </trkpt>
      <trkpt lat="44.95008" lon="4.10273">
        <ele>1237.83</ele>
        <time>2021-07-18T08:25:55Z</time>
      </trkpt>
      <trkpt lat="44.94994" lon="4.10279">
        <ele>1240.24</ele>
        <time>2021-07-18T08:26:08Z</time>
      </trkpt>
      <trkpt lat="44.94978" lon="4.10288">
        <ele>1241.2</ele>
        <time>2021-07-18T08:26:23Z</time>
      </trkpt>
      <trkpt lat="44.94972" lon="4.10294">
        <ele>1240.72</ele>
        <time>2021-07-18T08:26:30Z</time>
      </trkpt>
      <trkpt lat="44.94957" lon="4.10303">
        <ele>1239.76</ele>
        <time>2021-07-18T08:26:46Z</time>
      </trkpt>
      <trkpt lat="44.9494" lon="4.10314">
        <ele>1240.72</ele>
        <time>2021-07-18T08:27:02Z</time>
      </trkpt>
      <trkpt lat="44.94935" lon="4.10314">
        <ele>1241.2</ele>
        <time>2021-07-18T08:27:06Z</time>
      </trkpt>
      <trkpt lat="44.94913" lon="4.10324">
        <ele>1240.24</ele>
        <time>2021-07-18T08:27:20Z</time>
      </trkpt>
      <trkpt lat="44.94893" lon="4.10333">
        <ele>1239.28</ele>
        <time>2021-07-18T08:27:36Z</time>
      </trkpt>
      <trkpt lat="44.94878" lon="4.10343">
        <ele>1241.2</ele>
        <time>2021-07-18T08:27:51Z</time>
      </trkpt>
      <trkpt lat="44.94855" lon="4.10352">
        <ele>1242.16</ele>
        <time>2021-07-18T08:28:08Z</time>
      </trkpt>
      <trkpt lat="44.94836" lon="4.10358">
        <ele>1242.64</ele>
        <time>2021-07-18T08:28:24Z</time>
      </trkpt>
      <trkpt lat="44.94826" lon="4.10362">
        <ele>1243.12</ele>
        <time>2021-07-18T08:28:33Z</time>
      </trkpt>
      <trkpt lat="44.94805" lon="4.10372">
        <ele>1243.12</ele>
        <time>2021-07-18T08:28:50Z</time>
      </trkpt>
      <trkpt lat="44.94791" lon="4.10378">
        <ele>1244.08</ele>
        <time>2021-07-18T08:29:02Z</time>
      </trkpt>
      <trkpt lat="44.9477" lon="4.10387">
        <ele>1246.01</ele>
        <time>2021-07-18T08:29:18Z</time>
      </trkpt>
      <trkpt lat="44.94747" lon="4.10397">
        <ele>1247.93</ele>
        <time>2021-07-18T08:29:34Z</time>
      </trkpt>
      <trkpt lat="44.9473" lon="4.10401">
        <ele>1246.97</ele>
        <time>2021-07-18T08:29:49Z</time>
      </trkpt>
      <trkpt lat="44.94712" lon="4.10405">
        <ele>1246.49</ele>
        <time>2021-07-18T08:30:05Z</time>
      </trkpt>
      <trkpt lat="44.94698" lon="4.10408">
        <ele>1248.41</ele>
        <time>2021-07-18T08:30:16Z</time>
      </trkpt>
      <trkpt lat="44.94694" lon="4.10407">
        <ele>1247.93</ele>
        <time>2021-07-18T08:30:19Z</time>
      </trkpt>
      <trkpt lat="44.94686" lon="4.10396">
        <ele>1246.97</ele>
        <time>2021-07-18T08:30:29Z</time>
      </trkpt>
      <trkpt lat="44.94676" lon="4.10389">
        <ele>1247.93</ele>
        <time>2021-07-18T08:30:37Z</time>
      </trkpt>
      <trkpt lat="44.94671" lon="4.10388">
        <ele>1247.93</ele>
        <time>2021-07-18T08:30:41Z</time>
      </trkpt>
      <trkpt lat="44.94665" lon="4.10382">
        <ele>1248.89</ele>
        <time>2021-07-18T08:30:55Z</time>
      </trkpt>
      <trkpt lat="44.94659" lon="4.10379">
        <ele>1247.93</ele>
        <time>2021-07-18T08:31:09Z</time>
      </trkpt>
      <trkpt lat="44.94647" lon="4.10373">
        <ele>1250.81</ele>
        <time>2021-07-18T08:31:24Z</time>
      </trkpt>
      <trkpt lat="44.94631" lon="4.10362">
        <ele>1252.74</ele>
        <time>2021-07-18T08:31:39Z</time>
      </trkpt>
      <trkpt lat="44.94612" lon="4.10352">
        <ele>1251.29</ele>
        <time>2021-07-18T08:31:54Z</time>
      </trkpt>
      <trkpt lat="44.94594" lon="4.10347">
        <ele>1251.29</ele>
        <time>2021-07-18T08:32:09Z</time>
      </trkpt>
      <trkpt lat="44.94584" lon="4.10345">
        <ele>1252.74</ele>
        <time>2021-07-18T08:32:17Z</time>
      </trkpt>
      <trkpt lat="44.94566" lon="4.10343">
        <ele>1253.7</ele>
        <time>2021-07-18T08:32:32Z</time>
      </trkpt>
      <trkpt lat="44.94547" lon="4.1034">
        <ele>1252.74</ele>
        <time>2021-07-18T08:32:47Z</time>
      </trkpt>
      <trkpt lat="44.94525" lon="4.10343">
        <ele>1252.74</ele>
        <time>2021-07-18T08:33:02Z</time>
      </trkpt>
      <trkpt lat="44.94508" lon="4.10342">
        <ele>1252.25</ele>
        <time>2021-07-18T08:33:15Z</time>
      </trkpt>
      <trkpt lat="44.94492" lon="4.10336">
        <ele>1251.77</ele>
        <time>2021-07-18T08:33:27Z</time>
      </trkpt>
      <trkpt lat="44.94485" lon="4.10333">
        <ele>1251.77</ele>
        <time>2021-07-18T08:33:33Z</time>
      </trkpt>
      <trkpt lat="44.94483" lon="4.10331">
        <ele>1251.29</ele>
        <time>2021-07-18T08:33:35Z</time>
      </trkpt>
      <trkpt lat="44.9447" lon="4.10329">
        <ele>1248.89</ele>
        <time>2021-07-18T08:33:48Z</time>
      </trkpt>
      <trkpt lat="44.94469" lon="4.10328">
        <ele>1249.37</ele>
        <time>2021-07-18T08:33:49Z</time>
      </trkpt>
      <trkpt lat="44.9445" lon="4.10318">
        <ele>1250.33</ele>
        <time>2021-07-18T08:34:04Z</time>
      </trkpt>
      <trkpt lat="44.94443" lon="4.10318">
        <ele>1250.33</ele>
        <time>2021-07-18T08:34:10Z</time>
      </trkpt>
      <trkpt lat="44.94435" lon="4.10312">
        <ele>1251.77</ele>
        <time>2021-07-18T08:34:17Z</time>
      </trkpt>
      <trkpt lat="44.9443" lon="4.10311">
        <ele>1252.25</ele>
        <time>2021-07-18T08:34:21Z</time>
      </trkpt>
      <trkpt lat="44.94416" lon="4.10307">
        <ele>1246.97</ele>
        <time>2021-07-18T08:34:35Z</time>
      </trkpt>
      <trkpt lat="44.94396" lon="4.10317">
        <ele>1245.53</ele>
        <time>2021-07-18T08:34:52Z</time>
      </trkpt>
      <trkpt lat="44.94373" lon="4.1033">
        <ele>1246.97</ele>
        <time>2021-07-18T08:35:11Z</time>
      </trkpt>
      <trkpt lat="44.94347" lon="4.10339">
        <ele>1247.93</ele>
        <time>2021-07-18T08:35:31Z</time>
      </trkpt>
      <trkpt lat="44.94319" lon="4.1035">
        <ele>1246.97</ele>
        <time>2021-07-18T08:35:52Z</time>
      </trkpt>
      <trkpt lat="44.94305" lon="4.10353">
        <ele>1246.49</ele>
        <time>2021-07-18T08:36:06Z</time>
      </trkpt>
      <trkpt lat="44.94279" lon="4.10364">
        <ele>1246.49</ele>
        <time>2021-07-18T08:36:27Z</time>
      </trkpt>
      <trkpt lat="44.94253" lon="4.10372">
        <ele>1246.97</ele>
        <time>2021-07-18T08:36:47Z</time>
      </trkpt>
      <trkpt lat="44.94237" lon="4.10369">
        <ele>1245.53</ele>
        <time>2021-07-18T08:37:02Z</time>
      </trkpt>
      <trkpt lat="44.94233" lon="4.10368">
        <ele>1245.53</ele>
        <time>2021-07-18T08:37:10Z</time>
      </trkpt>
      <trkpt lat="44.94227" lon="4.10342">
        <ele>1244.56</ele>
        <time>2021-07-18T08:37:26Z</time>
      </trkpt>
      <trkpt lat="44.94219" lon="4.10303">
        <ele>1242.64</ele>
        <time>2021-07-18T08:37:47Z</time>
      </trkpt>
      <trkpt lat="44.94209" lon="4.10267">
        <ele>1242.64</ele>
        <time>2021-07-18T08:38:07Z</time>
      </trkpt>
      <trkpt lat="44.94199" lon="4.10231">
        <ele>1243.12</ele>
        <time>2021-07-18T08:38:27Z</time>
      </trkpt>
      <trkpt lat="44.94191" lon="4.10202">
        <ele>1243.6</ele>
        <time>2021-07-18T08:38:44Z</time>
      </trkpt>
      <trkpt lat="44.94182" lon="4.10173">
        <ele>1244.08</ele>
        <time>2021-07-18T08:39:01Z</time>
      </trkpt>
      <trkpt lat="44.94173" lon="4.10143">
        <ele>1243.6</ele>
        <time>2021-07-18T08:39:19Z</time>
      </trkpt>
      <trkpt lat="44.94164" lon="4.10112">
        <ele>1242.64</ele>
        <time>2021-07-18T08:39:36Z</time>
      </trkpt>
      <trkpt lat="44.94157" lon="4.10081">
        <ele>1240.24</ele>
        <time>2021-07-18T08:39:53Z</time>
      </trkpt>
      <trkpt lat="44.9415" lon="4.10053">
        <ele>1239.28</ele>
        <time>2021-07-18T08:40:10Z</time>
      </trkpt>
      <trkpt lat="44.94141" lon="4.10018">
        <ele>1240.72</ele>
        <time>2021-07-18T08:40:30Z</time>
      </trkpt>
      <trkpt lat="44.94139" lon="4.10009">
        <ele>1241.2</ele>
        <time>2021-07-18T08:40:35Z</time>
      </trkpt>
      <trkpt lat="44.94137" lon="4.10003">
        <ele>1241.68</ele>
        <time>2021-07-18T08:40:39Z</time>
      </trkpt>
      <trkpt lat="44.94131" lon="4.09968">
        <ele>1242.16</ele>
        <time>2021-07-18T08:40:58Z</time>
      </trkpt>
      <trkpt lat="44.94127" lon="4.0994">
        <ele>1241.2</ele>
        <time>2021-07-18T08:41:14Z</time>
      </trkpt>
      <trkpt lat="44.94119" lon="4.09905">
        <ele>1242.16</ele>
        <time>2021-07-18T08:41:34Z</time>
      </trkpt>
      <trkpt lat="44.94113" lon="4.09868">
        <ele>1242.16</ele>
        <time>2021-07-18T08:41:54Z</time>
      </trkpt>
      <trkpt lat="44.94107" lon="4.09834">
        <ele>1241.68</ele>
        <time>2021-07-18T08:42:13Z</time>
      </trkpt>
      <trkpt lat="44.94103" lon="4.09793">
        <ele>1241.68</ele>
        <time>2021-07-18T08:42:34Z</time>
      </trkpt>
      <trkpt lat="44.94099" lon="4.09762">
        <ele>1242.64</ele>
        <time>2021-07-18T08:42:52Z</time>
      </trkpt>
      <trkpt lat="44.94093" lon="4.09726">
        <ele>1244.08</ele>
        <time>2021-07-18T08:43:12Z</time>
      </trkpt>
      <trkpt lat="44.94089" lon="4.09696">
        <ele>1244.08</ele>
        <time>2021-07-18T08:43:29Z</time>
      </trkpt>
      <trkpt lat="44.94088" lon="4.09673">
        <ele>1245.04</ele>
        <time>2021-07-18T08:43:43Z</time>
      </trkpt>
      <trkpt lat="44.94087" lon="4.09658">
        <ele>1246.49</ele>
        <time>2021-07-18T08:43:52Z</time>
      </trkpt>
      <trkpt lat="44.94086" lon="4.09655">
        <ele>1247.93</ele>
        <time>2021-07-18T08:43:55Z</time>
      </trkpt>
      <trkpt lat="44.94085" lon="4.09649">
        <ele>1249.85</ele>
        <time>2021-07-18T08:43:59Z</time>
      </trkpt>
      <trkpt lat="44.94081" lon="4.09617">
        <ele>1255.14</ele>
        <time>2021-07-18T08:44:17Z</time>
      </trkpt>
      <trkpt lat="44.94081" lon="4.09612">
        <ele>1255.62</ele>
        <time>2021-07-18T08:44:20Z</time>
      </trkpt>
      <trkpt lat="44.94079" lon="4.09587">
        <ele>1254.66</ele>
        <time>2021-07-18T08:44:34Z</time>
      </trkpt>
      <trkpt lat="44.94081" lon="4.09579">
        <ele>1253.7</ele>
        <time>2021-07-18T08:44:39Z</time>
      </trkpt>
      <trkpt lat="44.94083" lon="4.0958">
        <ele>1252.74</ele>
        <time>2021-07-18T08:44:45Z</time>
      </trkpt>
      <trkpt lat="44.94082" lon="4.09578">
        <ele>1252.25</ele>
        <time>2021-07-18T08:44:47Z</time>
      </trkpt>
      <trkpt lat="44.9408" lon="4.09568">
        <ele>1251.29</ele>
        <time>2021-07-18T08:44:51Z</time>
      </trkpt>
      <trkpt lat="44.94079" lon="4.09557">
        <ele>1249.37</ele>
        <time>2021-07-18T08:44:57Z</time>
      </trkpt>
      <trkpt lat="44.94074" lon="4.09533">
        <ele>1246.49</ele>
        <time>2021-07-18T08:45:10Z</time>
      </trkpt>
      <trkpt lat="44.94074" lon="4.09505">
        <ele>1246.49</ele>
        <time>2021-07-18T08:45:23Z</time>
      </trkpt>
      <trkpt lat="44.9407" lon="4.09474">
        <ele>1246.97</ele>
        <time>2021-07-18T08:45:39Z</time>
      </trkpt>
      <trkpt lat="44.9407" lon="4.09469">
        <ele>1246.97</ele>
        <time>2021-07-18T08:45:42Z</time>
      </trkpt>
      <trkpt lat="44.94071" lon="4.09463">
        <ele>1246.97</ele>
        <time>2021-07-18T08:45:45Z</time>
      </trkpt>
      <trkpt lat="44.94073" lon="4.09451">
        <ele>1244.56</ele>
        <time>2021-07-18T08:45:51Z</time>
      </trkpt>
      <trkpt lat="44.94077" lon="4.09416">
        <ele>1238.8</ele>
        <time>2021-07-18T08:46:05Z</time>
      </trkpt>
      <trkpt lat="44.94075" lon="4.09386">
        <ele>1239.28</ele>
        <time>2021-07-18T08:46:20Z</time>
      </trkpt>
      <trkpt lat="44.94073" lon="4.09375">
        <ele>1240.72</ele>
        <time>2021-07-18T08:46:26Z</time>
      </trkpt>
      <trkpt lat="44.94066" lon="4.09362">
        <ele>1245.53</ele>
        <time>2021-07-18T08:46:40Z</time>
      </trkpt>
      <trkpt lat="44.94057" lon="4.09333">
        <ele>1250.81</ele>
        <time>2021-07-18T08:46:59Z</time>
      </trkpt>
      <trkpt lat="44.94051" lon="4.09303">
        <ele>1248.89</ele>
        <time>2021-07-18T08:47:12Z</time>
      </trkpt>
      <trkpt lat="44.94048" lon="4.09265">
        <ele>1237.83</ele>
        <time>2021-07-18T08:47:28Z</time>
      </trkpt>
      <trkpt lat="44.94049" lon="4.09232">
        <ele>1234.95</ele>
        <time>2021-07-18T08:47:45Z</time>
      </trkpt>
      <trkpt lat="44.94055" lon="4.09202">
        <ele>1232.07</ele>
        <time>2021-07-18T08:48:00Z</time>
      </trkpt>
      <trkpt lat="44.94059" lon="4.09172">
        <ele>1230.14</ele>
        <time>2021-07-18T08:48:16Z</time>
      </trkpt>
      <trkpt lat="44.94064" lon="4.09144">
        <ele>1226.78</ele>
        <time>2021-07-18T08:48:30Z</time>
      </trkpt>
      <trkpt lat="44.9407" lon="4.0912">
        <ele>1227.74</ele>
        <time>2021-07-18T08:48:44Z</time>
      </trkpt>
      <trkpt lat="44.94077" lon="4.09083">
        <ele>1232.55</ele>
        <time>2021-07-18T08:49:03Z</time>
      </trkpt>
      <trkpt lat="44.9408" lon="4.09076">
        <ele>1233.03</ele>
        <time>2021-07-18T08:49:07Z</time>
      </trkpt>
      <trkpt lat="44.94082" lon="4.09067">
        <ele>1232.55</ele>
        <time>2021-07-18T08:49:12Z</time>
      </trkpt>
      <trkpt lat="44.9409" lon="4.09036">
        <ele>1232.07</ele>
        <time>2021-07-18T08:49:30Z</time>
      </trkpt>
      <trkpt lat="44.94097" lon="4.09008">
        <ele>1233.51</ele>
        <time>2021-07-18T08:49:47Z</time>
      </trkpt>
      <trkpt lat="44.941" lon="4.09">
        <ele>1233.03</ele>
        <time>2021-07-18T08:49:52Z</time>
      </trkpt>
      <trkpt lat="44.94106" lon="4.08972">
        <ele>1231.11</ele>
        <time>2021-07-18T08:50:08Z</time>
      </trkpt>
      <trkpt lat="44.94108" lon="4.08961">
        <ele>1230.62</ele>
        <time>2021-07-18T08:50:14Z</time>
      </trkpt>
      <trkpt lat="44.94109" lon="4.08949">
        <ele>1230.14</ele>
        <time>2021-07-18T08:50:21Z</time>
      </trkpt>
      <trkpt lat="44.94111" lon="4.08939">
        <ele>1230.14</ele>
        <time>2021-07-18T08:50:26Z</time>
      </trkpt>
      <trkpt lat="44.94113" lon="4.0893">
        <ele>1229.66</ele>
        <time>2021-07-18T08:50:31Z</time>
      </trkpt>
      <trkpt lat="44.94113" lon="4.08927">
        <ele>1229.66</ele>
        <time>2021-07-18T08:50:33Z</time>
      </trkpt>
      <trkpt lat="44.94117" lon="4.08908">
        <ele>1227.74</ele>
        <time>2021-07-18T08:50:43Z</time>
      </trkpt>
      <trkpt lat="44.94125" lon="4.08879">
        <ele>1223.42</ele>
        <time>2021-07-18T08:50:59Z</time>
      </trkpt>
      <trkpt lat="44.94129" lon="4.08857">
        <ele>1223.42</ele>
        <time>2021-07-18T08:51:11Z</time>
      </trkpt>
      <trkpt lat="44.94134" lon="4.08833">
        <ele>1222.45</ele>
        <time>2021-07-18T08:51:24Z</time>
      </trkpt>
      <trkpt lat="44.94136" lon="4.08828">
        <ele>1222.45</ele>
        <time>2021-07-18T08:51:27Z</time>
      </trkpt>
      <trkpt lat="44.94138" lon="4.08811">
        <ele>1221.97</ele>
        <time>2021-07-18T08:51:36Z</time>
      </trkpt>
      <trkpt lat="44.94144" lon="4.08776">
        <ele>1223.42</ele>
        <time>2021-07-18T08:51:54Z</time>
      </trkpt>
      <trkpt lat="44.94147" lon="4.0877">
        <ele>1223.9</ele>
        <time>2021-07-18T08:51:58Z</time>
      </trkpt>
      <trkpt lat="44.94145" lon="4.08758">
        <ele>1223.42</ele>
        <time>2021-07-18T08:52:05Z</time>
      </trkpt>
      <trkpt lat="44.94146" lon="4.08751">
        <ele>1222.45</ele>
        <time>2021-07-18T08:52:09Z</time>
      </trkpt>
      <trkpt lat="44.94147" lon="4.08744">
        <ele>1222.45</ele>
        <time>2021-07-18T08:52:13Z</time>
      </trkpt>
      <trkpt lat="44.94147" lon="4.0874">
        <ele>1221.97</ele>
        <time>2021-07-18T08:52:16Z</time>
      </trkpt>
      <trkpt lat="44.94148" lon="4.08735">
        <ele>1221.49</ele>
        <time>2021-07-18T08:52:19Z</time>
      </trkpt>
      <trkpt lat="44.94148" lon="4.08707">
        <ele>1221.97</ele>
        <time>2021-07-18T08:52:35Z</time>
      </trkpt>
      <trkpt lat="44.94149" lon="4.08695">
        <ele>1223.9</ele>
        <time>2021-07-18T08:52:42Z</time>
      </trkpt>
      <trkpt lat="44.94145" lon="4.08687">
        <ele>1217.65</ele>
        <time>2021-07-18T08:52:55Z</time>
      </trkpt>
      <trkpt lat="44.94142" lon="4.08686">
        <ele>1213.8</ele>
        <time>2021-07-18T08:53:04Z</time>
      </trkpt>
      <trkpt lat="44.94144" lon="4.08685">
        <ele>1211.88</ele>
        <time>2021-07-18T08:53:18Z</time>
      </trkpt>
      <trkpt lat="44.94145" lon="4.08684">
        <ele>1209.48</ele>
        <time>2021-07-18T08:53:43Z</time>
      </trkpt>
      <trkpt lat="44.94146" lon="4.08679">
        <ele>1211.4</ele>
        <time>2021-07-18T08:53:55Z</time>
      </trkpt>
      <trkpt lat="44.94146" lon="4.08679">
        <ele>1211.4</ele>
        <time>2021-07-18T08:53:58Z</time>
      </trkpt>
      <trkpt lat="44.94151" lon="4.08668">
        <ele>1211.88</ele>
        <time>2021-07-18T08:54:05Z</time>
      </trkpt>
      <trkpt lat="44.94155" lon="4.08651">
        <ele>1211.88</ele>
        <time>2021-07-18T08:54:14Z</time>
      </trkpt>
      <trkpt lat="44.9416" lon="4.0862">
        <ele>1209.96</ele>
        <time>2021-07-18T08:54:32Z</time>
      </trkpt>
      <trkpt lat="44.94163" lon="4.08606">
        <ele>1209.96</ele>
        <time>2021-07-18T08:54:39Z</time>
      </trkpt>
      <trkpt lat="44.94168" lon="4.08578">
        <ele>1210.44</ele>
        <time>2021-07-18T08:54:55Z</time>
      </trkpt>
      <trkpt lat="44.94174" lon="4.08554">
        <ele>1211.88</ele>
        <time>2021-07-18T08:55:09Z</time>
      </trkpt>
      <trkpt lat="44.94176" lon="4.08543">
        <ele>1212.84</ele>
        <time>2021-07-18T08:55:16Z</time>
      </trkpt>
      <trkpt lat="44.9418" lon="4.08518">
        <ele>1213.32</ele>
        <time>2021-07-18T08:55:30Z</time>
      </trkpt>
      <trkpt lat="44.94184" lon="4.08491">
        <ele>1212.84</ele>
        <time>2021-07-18T08:55:45Z</time>
      </trkpt>
      <trkpt lat="44.94185" lon="4.08481">
        <ele>1212.84</ele>
        <time>2021-07-18T08:55:51Z</time>
      </trkpt>
      <trkpt lat="44.94188" lon="4.08469">
        <ele>1211.4</ele>
        <time>2021-07-18T08:56:03Z</time>
      </trkpt>
      <trkpt lat="44.94187" lon="4.08466">
        <ele>1210.92</ele>
        <time>2021-07-18T08:56:09Z</time>
      </trkpt>
      <trkpt lat="44.9419" lon="4.08452">
        <ele>1210.92</ele>
        <time>2021-07-18T08:56:18Z</time>
      </trkpt>
      <trkpt lat="44.94191" lon="4.08433">
        <ele>1211.88</ele>
        <time>2021-07-18T08:56:29Z</time>
      </trkpt>
      <trkpt lat="44.94186" lon="4.08399">
        <ele>1207.55</ele>
        <time>2021-07-18T08:56:47Z</time>
      </trkpt>
      <trkpt lat="44.94187" lon="4.08369">
        <ele>1205.15</ele>
        <time>2021-07-18T08:57:04Z</time>
      </trkpt>
      <trkpt lat="44.94187" lon="4.08366">
        <ele>1204.67</ele>
        <time>2021-07-18T08:57:06Z</time>
      </trkpt>
      <trkpt lat="44.94189" lon="4.08354">
        <ele>1204.19</ele>
        <time>2021-07-18T08:57:13Z</time>
      </trkpt>
      <trkpt lat="44.94189" lon="4.08325">
        <ele>1203.23</ele>
        <time>2021-07-18T08:57:29Z</time>
      </trkpt>
      <trkpt lat="44.94184" lon="4.08301">
        <ele>1205.15</ele>
        <time>2021-07-18T08:57:44Z</time>
      </trkpt>
      <trkpt lat="44.94179" lon="4.08288">
        <ele>1205.63</ele>
        <time>2021-07-18T08:57:53Z</time>
      </trkpt>
      <trkpt lat="44.94169" lon="4.08265">
        <ele>1206.11</ele>
        <time>2021-07-18T08:58:09Z</time>
      </trkpt>
      <trkpt lat="44.94161" lon="4.08234">
        <ele>1204.19</ele>
        <time>2021-07-18T08:58:25Z</time>
      </trkpt>
      <trkpt lat="44.94147" lon="4.08205">
        <ele>1202.75</ele>
        <time>2021-07-18T08:58:44Z</time>
      </trkpt>
      <trkpt lat="44.94136" lon="4.08182">
        <ele>1204.67</ele>
        <time>2021-07-18T08:59:01Z</time>
      </trkpt>
      <trkpt lat="44.94119" lon="4.0815">
        <ele>1205.15</ele>
        <time>2021-07-18T08:59:22Z</time>
      </trkpt>
      <trkpt lat="44.94105" lon="4.08128">
        <ele>1203.71</ele>
        <time>2021-07-18T08:59:39Z</time>
      </trkpt>
      <trkpt lat="44.94091" lon="4.08107">
        <ele>1203.71</ele>
        <time>2021-07-18T08:59:55Z</time>
      </trkpt>
      <trkpt lat="44.94075" lon="4.08081">
        <ele>1204.67</ele>
        <time>2021-07-18T09:00:14Z</time>
      </trkpt>
      <trkpt lat="44.94058" lon="4.0805">
        <ele>1203.71</ele>
        <time>2021-07-18T09:00:32Z</time>
      </trkpt>
      <trkpt lat="44.94046" lon="4.08023">
        <ele>1204.19</ele>
        <time>2021-07-18T09:00:50Z</time>
      </trkpt>
      <trkpt lat="44.94039" lon="4.08001">
        <ele>1203.71</ele>
        <time>2021-07-18T09:01:04Z</time>
      </trkpt>
      <trkpt lat="44.94037" lon="4.07983">
        <ele>1203.23</ele>
        <time>2021-07-18T09:01:12Z</time>
      </trkpt>
      <trkpt lat="44.94024" lon="4.07955">
        <ele>1199.86</ele>
        <time>2021-07-18T09:01:29Z</time>
      </trkpt>
      <trkpt lat="44.94017" lon="4.07945">
        <ele>1197.94</ele>
        <time>2021-07-18T09:01:43Z</time>
      </trkpt>
      <trkpt lat="44.94013" lon="4.07942">
        <ele>1198.9</ele>
        <time>2021-07-18T09:01:52Z</time>
      </trkpt>
      <trkpt lat="44.94009" lon="4.07932">
        <ele>1198.42</ele>
        <time>2021-07-18T09:02:07Z</time>
      </trkpt>
      <trkpt lat="44.94008" lon="4.07931">
        <ele>1197.46</ele>
        <time>2021-07-18T09:02:16Z</time>
      </trkpt>
      <trkpt lat="44.94009" lon="4.07932">
        <ele>1196.5</ele>
        <time>2021-07-18T09:02:32Z</time>
      </trkpt>
      <trkpt lat="44.94008" lon="4.07932">
        <ele>1195.54</ele>
        <time>2021-07-18T09:02:54Z</time>
      </trkpt>
      <trkpt lat="44.94007" lon="4.07931">
        <ele>1195.06</ele>
        <time>2021-07-18T09:03:11Z</time>
      </trkpt>
      <trkpt lat="44.94008" lon="4.07928">
        <ele>1194.58</ele>
        <time>2021-07-18T09:03:29Z</time>
      </trkpt>
      <trkpt lat="44.94008" lon="4.0793">
        <ele>1193.13</ele>
        <time>2021-07-18T09:03:59Z</time>
      </trkpt>
      <trkpt lat="44.9401" lon="4.07929">
        <ele>1192.17</ele>
        <time>2021-07-18T09:04:29Z</time>
      </trkpt>
      <trkpt lat="44.94011" lon="4.07928">
        <ele>1192.17</ele>
        <time>2021-07-18T09:04:54Z</time>
      </trkpt>
      <trkpt lat="44.94011" lon="4.07927">
        <ele>1191.69</ele>
        <time>2021-07-18T09:05:17Z</time>
      </trkpt>
      <trkpt lat="44.94011" lon="4.07927">
        <ele>1190.73</ele>
        <time>2021-07-18T09:05:41Z</time>
      </trkpt>
      <trkpt lat="44.94012" lon="4.07926">
        <ele>1190.25</ele>
        <time>2021-07-18T09:06:06Z</time>
      </trkpt>
      <trkpt lat="44.94012" lon="4.07926">
        <ele>1190.25</ele>
        <time>2021-07-18T09:06:30Z</time>
      </trkpt>
      <trkpt lat="44.94013" lon="4.07926">
        <ele>1189.77</ele>
        <time>2021-07-18T09:07:01Z</time>
      </trkpt>
      <trkpt lat="44.94013" lon="4.07927">
        <ele>1189.29</ele>
        <time>2021-07-18T09:07:26Z</time>
      </trkpt>
      <trkpt lat="44.94013" lon="4.07927">
        <ele>1188.33</ele>
        <time>2021-07-18T09:07:54Z</time>
      </trkpt>
      <trkpt lat="44.94013" lon="4.07929">
        <ele>1187.37</ele>
        <time>2021-07-18T09:08:22Z</time>
      </trkpt>
      <trkpt lat="44.94013" lon="4.07929">
        <ele>1187.85</ele>
        <time>2021-07-18T09:08:55Z</time>
      </trkpt>
      <trkpt lat="44.94014" lon="4.07929">
        <ele>1187.37</ele>
        <time>2021-07-18T09:09:31Z</time>
      </trkpt>
      <trkpt lat="44.94014" lon="4.07929">
        <ele>1187.85</ele>
        <time>2021-07-18T09:10:03Z</time>
      </trkpt>
      <trkpt lat="44.94014" lon="4.07928">
        <ele>1186.88</ele>
        <time>2021-07-18T09:10:31Z</time>
      </trkpt>
      <trkpt lat="44.94014" lon="4.07927">
        <ele>1186.88</ele>
        <time>2021-07-18T09:11:04Z</time>
      </trkpt>
      <trkpt lat="44.94015" lon="4.07929">
        <ele>1186.4</ele>
        <time>2021-07-18T09:11:41Z</time>
      </trkpt>
      <trkpt lat="44.94015" lon="4.07931">
        <ele>1185.92</ele>
        <time>2021-07-18T09:12:24Z</time>
      </trkpt>
      <trkpt lat="44.94014" lon="4.07929">
        <ele>1184.96</ele>
        <time>2021-07-18T09:12:59Z</time>
      </trkpt>
      <trkpt lat="44.94014" lon="4.07928">
        <ele>1183.52</ele>
        <time>2021-07-18T09:13:32Z</time>
      </trkpt>
      <trkpt lat="44.94013" lon="4.07929">
        <ele>1183.04</ele>
        <time>2021-07-18T09:14:14Z</time>
      </trkpt>
      <trkpt lat="44.94013" lon="4.07929">
        <ele>1182.56</ele>
        <time>2021-07-18T09:14:56Z</time>
      </trkpt>
      <trkpt lat="44.94013" lon="4.07928">
        <ele>1182.08</ele>
        <time>2021-07-18T09:15:30Z</time>
      </trkpt>
      <trkpt lat="44.94013" lon="4.07927">
        <ele>1181.6</ele>
        <time>2021-07-18T09:16:02Z</time>
      </trkpt>
      <trkpt lat="44.94012" lon="4.07927">
        <ele>1182.08</ele>
        <time>2021-07-18T09:16:33Z</time>
      </trkpt>
      <trkpt lat="44.94013" lon="4.07927">
        <ele>1182.08</ele>
        <time>2021-07-18T09:17:07Z</time>
      </trkpt>
      <trkpt lat="44.94013" lon="4.07927">
        <ele>1182.08</ele>
        <time>2021-07-18T09:17:41Z</time>
      </trkpt>
      <trkpt lat="44.94013" lon="4.07927">
        <ele>1182.08</ele>
        <time>2021-07-18T09:18:16Z</time>
      </trkpt>
      <trkpt lat="44.94013" lon="4.07928">
        <ele>1181.6</ele>
        <time>2021-07-18T09:18:52Z</time>
      </trkpt>
      <trkpt lat="44.94014" lon="4.07929">
        <ele>1181.6</ele>
        <time>2021-07-18T09:19:22Z</time>
      </trkpt>
      <trkpt lat="44.94013" lon="4.07929">
        <ele>1181.12</ele>
        <time>2021-07-18T09:19:52Z</time>
      </trkpt>
      <trkpt lat="44.94013" lon="4.0793">
        <ele>1184</ele>
        <time>2021-07-18T09:20:07Z</time>
      </trkpt>
      <trkpt lat="44.94011" lon="4.07931">
        <ele>1188.33</ele>
        <time>2021-07-18T09:20:18Z</time>
      </trkpt>
      <trkpt lat="44.94007" lon="4.0793">
        <ele>1190.73</ele>
        <time>2021-07-18T09:20:31Z</time>
      </trkpt>
      <trkpt lat="44.94005" lon="4.07926">
        <ele>1191.21</ele>
        <time>2021-07-18T09:20:35Z</time>
      </trkpt>
      <trkpt lat="44.94" lon="4.07917">
        <ele>1192.17</ele>
        <time>2021-07-18T09:20:41Z</time>
      </trkpt>
      <trkpt lat="44.93996" lon="4.07908">
        <ele>1193.13</ele>
        <time>2021-07-18T09:20:48Z</time>
      </trkpt>
      <trkpt lat="44.93997" lon="4.0789">
        <ele>1194.58</ele>
        <time>2021-07-18T09:20:58Z</time>
      </trkpt>
      <trkpt lat="44.94003" lon="4.07863">
        <ele>1196.5</ele>
        <time>2021-07-18T09:21:15Z</time>
      </trkpt>
      <trkpt lat="44.94008" lon="4.0784">
        <ele>1196.5</ele>
        <time>2021-07-18T09:21:29Z</time>
      </trkpt>
      <trkpt lat="44.94013" lon="4.07804">
        <ele>1195.54</ele>
        <time>2021-07-18T09:21:50Z</time>
      </trkpt>
      <trkpt lat="44.94016" lon="4.07766">
        <ele>1196.5</ele>
        <time>2021-07-18T09:22:10Z</time>
      </trkpt>
      <trkpt lat="44.94014" lon="4.07729">
        <ele>1196.98</ele>
        <time>2021-07-18T09:22:30Z</time>
      </trkpt>
      <trkpt lat="44.94014" lon="4.07726">
        <ele>1196.98</ele>
        <time>2021-07-18T09:22:32Z</time>
      </trkpt>
      <trkpt lat="44.94029" lon="4.07713">
        <ele>1197.94</ele>
        <time>2021-07-18T09:22:47Z</time>
      </trkpt>
      <trkpt lat="44.94057" lon="4.07712">
        <ele>1199.86</ele>
        <time>2021-07-18T09:23:07Z</time>
      </trkpt>
      <trkpt lat="44.94088" lon="4.07712">
        <ele>1200.34</ele>
        <time>2021-07-18T09:23:29Z</time>
      </trkpt>
      <trkpt lat="44.94113" lon="4.07701">
        <ele>1200.82</ele>
        <time>2021-07-18T09:23:48Z</time>
      </trkpt>
      <trkpt lat="44.9413" lon="4.07673">
        <ele>1201.79</ele>
        <time>2021-07-18T09:24:07Z</time>
      </trkpt>
      <trkpt lat="44.94148" lon="4.07647">
        <ele>1199.86</ele>
        <time>2021-07-18T09:24:26Z</time>
      </trkpt>
      <trkpt lat="44.94162" lon="4.07626">
        <ele>1198.42</ele>
        <time>2021-07-18T09:24:42Z</time>
      </trkpt>
      <trkpt lat="44.94176" lon="4.07601">
        <ele>1197.46</ele>
        <time>2021-07-18T09:24:58Z</time>
      </trkpt>
      <trkpt lat="44.94197" lon="4.0757">
        <ele>1196.02</ele>
        <time>2021-07-18T09:25:19Z</time>
      </trkpt>
      <trkpt lat="44.94216" lon="4.07538">
        <ele>1195.54</ele>
        <time>2021-07-18T09:25:41Z</time>
      </trkpt>
      <trkpt lat="44.94235" lon="4.07508">
        <ele>1195.54</ele>
        <time>2021-07-18T09:26:01Z</time>
      </trkpt>
      <trkpt lat="44.94253" lon="4.07476">
        <ele>1195.54</ele>
        <time>2021-07-18T09:26:22Z</time>
      </trkpt>
      <trkpt lat="44.94268" lon="4.07449">
        <ele>1195.54</ele>
        <time>2021-07-18T09:26:40Z</time>
      </trkpt>
      <trkpt lat="44.94283" lon="4.07414">
        <ele>1196.02</ele>
        <time>2021-07-18T09:27:01Z</time>
      </trkpt>
      <trkpt lat="44.94291" lon="4.07384">
        <ele>1194.58</ele>
        <time>2021-07-18T09:27:18Z</time>
      </trkpt>
      <trkpt lat="44.94295" lon="4.07362">
        <ele>1194.09</ele>
        <time>2021-07-18T09:27:30Z</time>
      </trkpt>
      <trkpt lat="44.943" lon="4.07357">
        <ele>1194.58</ele>
        <time>2021-07-18T09:27:35Z</time>
      </trkpt>
      <trkpt lat="44.94304" lon="4.07356">
        <ele>1195.06</ele>
        <time>2021-07-18T09:27:49Z</time>
      </trkpt>
      <trkpt lat="44.94304" lon="4.07356">
        <ele>1195.54</ele>
        <time>2021-07-18T09:28:04Z</time>
      </trkpt>
      <trkpt lat="44.94301" lon="4.07352">
        <ele>1196.02</ele>
        <time>2021-07-18T09:28:08Z</time>
      </trkpt>
      <trkpt lat="44.94305" lon="4.07322">
        <ele>1195.54</ele>
        <time>2021-07-18T09:28:25Z</time>
      </trkpt>
      <trkpt lat="44.9431" lon="4.07297">
        <ele>1196.02</ele>
        <time>2021-07-18T09:28:40Z</time>
      </trkpt>
      <trkpt lat="44.94311" lon="4.07288">
        <ele>1196.5</ele>
        <time>2021-07-18T09:28:45Z</time>
      </trkpt>
      <trkpt lat="44.94312" lon="4.07282">
        <ele>1196.98</ele>
        <time>2021-07-18T09:28:49Z</time>
      </trkpt>
      <trkpt lat="44.94319" lon="4.07252">
        <ele>1196.5</ele>
        <time>2021-07-18T09:29:06Z</time>
      </trkpt>
      <trkpt lat="44.94325" lon="4.07227">
        <ele>1196.98</ele>
        <time>2021-07-18T09:29:21Z</time>
      </trkpt>
      <trkpt lat="44.94333" lon="4.07197">
        <ele>1193.61</ele>
        <time>2021-07-18T09:29:37Z</time>
      </trkpt>
      <trkpt lat="44.94338" lon="4.07173">
        <ele>1192.17</ele>
        <time>2021-07-18T09:29:50Z</time>
      </trkpt>
      <trkpt lat="44.9434" lon="4.07165">
        <ele>1192.65</ele>
        <time>2021-07-18T09:29:55Z</time>
      </trkpt>
      <trkpt lat="44.94345" lon="4.07139">
        <ele>1193.13</ele>
        <time>2021-07-18T09:30:10Z</time>
      </trkpt>
      <trkpt lat="44.94351" lon="4.0711">
        <ele>1194.58</ele>
        <time>2021-07-18T09:30:26Z</time>
      </trkpt>
      <trkpt lat="44.94357" lon="4.07083">
        <ele>1195.06</ele>
        <time>2021-07-18T09:30:41Z</time>
      </trkpt>
      <trkpt lat="44.94362" lon="4.07056">
        <ele>1195.54</ele>
        <time>2021-07-18T09:30:56Z</time>
      </trkpt>
      <trkpt lat="44.94367" lon="4.07033">
        <ele>1195.54</ele>
        <time>2021-07-18T09:31:09Z</time>
      </trkpt>
      <trkpt lat="44.9437" lon="4.07024">
        <ele>1196.5</ele>
        <time>2021-07-18T09:31:14Z</time>
      </trkpt>
      <trkpt lat="44.94374" lon="4.06994">
        <ele>1197.94</ele>
        <time>2021-07-18T09:31:31Z</time>
      </trkpt>
      <trkpt lat="44.94379" lon="4.06963">
        <ele>1198.9</ele>
        <time>2021-07-18T09:31:47Z</time>
      </trkpt>
      <trkpt lat="44.94384" lon="4.06931">
        <ele>1197.94</ele>
        <time>2021-07-18T09:32:04Z</time>
      </trkpt>
      <trkpt lat="44.94388" lon="4.06892">
        <ele>1194.09</ele>
        <time>2021-07-18T09:32:24Z</time>
      </trkpt>
      <trkpt lat="44.94395" lon="4.06854">
        <ele>1192.65</ele>
        <time>2021-07-18T09:32:44Z</time>
      </trkpt>
      <trkpt lat="44.94399" lon="4.06821">
        <ele>1190.25</ele>
        <time>2021-07-18T09:33:01Z</time>
      </trkpt>
      <trkpt lat="44.94402" lon="4.06784">
        <ele>1188.33</ele>
        <time>2021-07-18T09:33:18Z</time>
      </trkpt>
      <trkpt lat="44.94409" lon="4.06751">
        <ele>1188.33</ele>
        <time>2021-07-18T09:33:35Z</time>
      </trkpt>
      <trkpt lat="44.94421" lon="4.06721">
        <ele>1187.85</ele>
        <time>2021-07-18T09:33:53Z</time>
      </trkpt>
      <trkpt lat="44.94433" lon="4.06686">
        <ele>1187.85</ele>
        <time>2021-07-18T09:34:13Z</time>
      </trkpt>
      <trkpt lat="44.94435" lon="4.06645">
        <ele>1185.44</ele>
        <time>2021-07-18T09:34:34Z</time>
      </trkpt>
      <trkpt lat="44.94432" lon="4.06604">
        <ele>1183.52</ele>
        <time>2021-07-18T09:34:55Z</time>
      </trkpt>
      <trkpt lat="44.94429" lon="4.06572">
        <ele>1182.56</ele>
        <time>2021-07-18T09:35:12Z</time>
      </trkpt>
      <trkpt lat="44.94437" lon="4.06539">
        <ele>1181.6</ele>
        <time>2021-07-18T09:35:30Z</time>
      </trkpt>
      <trkpt lat="44.94448" lon="4.06509">
        <ele>1181.6</ele>
        <time>2021-07-18T09:35:47Z</time>
      </trkpt>
      <trkpt lat="44.94454" lon="4.0648">
        <ele>1182.08</ele>
        <time>2021-07-18T09:36:02Z</time>
      </trkpt>
      <trkpt lat="44.94463" lon="4.06452">
        <ele>1181.12</ele>
        <time>2021-07-18T09:36:17Z</time>
      </trkpt>
      <trkpt lat="44.94469" lon="4.06419">
        <ele>1180.64</ele>
        <time>2021-07-18T09:36:35Z</time>
      </trkpt>
      <trkpt lat="44.94471" lon="4.06383">
        <ele>1179.67</ele>
        <time>2021-07-18T09:36:54Z</time>
      </trkpt>
      <trkpt lat="44.9447" lon="4.06348">
        <ele>1177.27</ele>
        <time>2021-07-18T09:37:11Z</time>
      </trkpt>
      <trkpt lat="44.94471" lon="4.06313">
        <ele>1174.87</ele>
        <time>2021-07-18T09:37:28Z</time>
      </trkpt>
      <trkpt lat="44.9448" lon="4.06274">
        <ele>1172.95</ele>
        <time>2021-07-18T09:37:48Z</time>
      </trkpt>
      <trkpt lat="44.94487" lon="4.06244">
        <ele>1171.98</ele>
        <time>2021-07-18T09:38:04Z</time>
      </trkpt>
      <trkpt lat="44.94496" lon="4.06209">
        <ele>1171.02</ele>
        <time>2021-07-18T09:38:22Z</time>
      </trkpt>
      <trkpt lat="44.94505" lon="4.06175">
        <ele>1170.54</ele>
        <time>2021-07-18T09:38:40Z</time>
      </trkpt>
      <trkpt lat="44.94509" lon="4.06155">
        <ele>1170.54</ele>
        <time>2021-07-18T09:38:51Z</time>
      </trkpt>
      <trkpt lat="44.945" lon="4.06121">
        <ele>1167.66</ele>
        <time>2021-07-18T09:39:10Z</time>
      </trkpt>
      <trkpt lat="44.94512" lon="4.06095">
        <ele>1166.7</ele>
        <time>2021-07-18T09:39:25Z</time>
      </trkpt>
      <trkpt lat="44.94529" lon="4.06064">
        <ele>1164.77</ele>
        <time>2021-07-18T09:39:44Z</time>
      </trkpt>
      <trkpt lat="44.94546" lon="4.06036">
        <ele>1163.33</ele>
        <time>2021-07-18T09:40:02Z</time>
      </trkpt>
      <trkpt lat="44.94549" lon="4.06005">
        <ele>1160.93</ele>
        <time>2021-07-18T09:40:18Z</time>
      </trkpt>
      <trkpt lat="44.94528" lon="4.05984">
        <ele>1157.56</ele>
        <time>2021-07-18T09:40:36Z</time>
      </trkpt>
      <trkpt lat="44.94505" lon="4.05966">
        <ele>1155.16</ele>
        <time>2021-07-18T09:40:54Z</time>
      </trkpt>
      <trkpt lat="44.94486" lon="4.05953">
        <ele>1153.24</ele>
        <time>2021-07-18T09:41:10Z</time>
      </trkpt>
      <trkpt lat="44.94485" lon="4.05949">
        <ele>1152.76</ele>
        <time>2021-07-18T09:41:13Z</time>
      </trkpt>
      <trkpt lat="44.94487" lon="4.05942">
        <ele>1152.76</ele>
        <time>2021-07-18T09:41:18Z</time>
      </trkpt>
      <trkpt lat="44.94496" lon="4.05916">
        <ele>1152.28</ele>
        <time>2021-07-18T09:41:35Z</time>
      </trkpt>
      <trkpt lat="44.94502" lon="4.05891">
        <ele>1151.32</ele>
        <time>2021-07-18T09:41:50Z</time>
      </trkpt>
      <trkpt lat="44.9451" lon="4.05863">
        <ele>1150.35</ele>
        <time>2021-07-18T09:42:06Z</time>
      </trkpt>
      <trkpt lat="44.94522" lon="4.05828">
        <ele>1147.95</ele>
        <time>2021-07-18T09:42:26Z</time>
      </trkpt>
      <trkpt lat="44.94535" lon="4.05795">
        <ele>1145.55</ele>
        <time>2021-07-18T09:42:46Z</time>
      </trkpt>
      <trkpt lat="44.94551" lon="4.05765">
        <ele>1141.7</ele>
        <time>2021-07-18T09:43:05Z</time>
      </trkpt>
      <trkpt lat="44.94559" lon="4.05736">
        <ele>1139.3</ele>
        <time>2021-07-18T09:43:21Z</time>
      </trkpt>
      <trkpt lat="44.94559" lon="4.05734">
        <ele>1139.3</ele>
        <time>2021-07-18T09:43:22Z</time>
      </trkpt>
      <trkpt lat="44.94571" lon="4.05704">
        <ele>1136.42</ele>
        <time>2021-07-18T09:43:41Z</time>
      </trkpt>
      <trkpt lat="44.94579" lon="4.05684">
        <ele>1133.05</ele>
        <time>2021-07-18T09:43:54Z</time>
      </trkpt>
      <trkpt lat="44.9458" lon="4.0568">
        <ele>1132.09</ele>
        <time>2021-07-18T09:43:57Z</time>
      </trkpt>
      <trkpt lat="44.94584" lon="4.05649">
        <ele>1127.76</ele>
        <time>2021-07-18T09:44:14Z</time>
      </trkpt>
      <trkpt lat="44.9459" lon="4.05608">
        <ele>1124.88</ele>
        <time>2021-07-18T09:44:34Z</time>
      </trkpt>
      <trkpt lat="44.94594" lon="4.0557">
        <ele>1121.03</ele>
        <time>2021-07-18T09:44:54Z</time>
      </trkpt>
      <trkpt lat="44.94598" lon="4.05531">
        <ele>1119.59</ele>
        <time>2021-07-18T09:45:13Z</time>
      </trkpt>
      <trkpt lat="44.94603" lon="4.05486">
        <ele>1119.11</ele>
        <time>2021-07-18T09:45:35Z</time>
      </trkpt>
      <trkpt lat="44.94613" lon="4.05446">
        <ele>1118.63</ele>
        <time>2021-07-18T09:45:55Z</time>
      </trkpt>
      <trkpt lat="44.94623" lon="4.05413">
        <ele>1117.67</ele>
        <time>2021-07-18T09:46:13Z</time>
      </trkpt>
      <trkpt lat="44.9463" lon="4.05388">
        <ele>1116.23</ele>
        <time>2021-07-18T09:46:26Z</time>
      </trkpt>
      <trkpt lat="44.94641" lon="4.05349">
        <ele>1115.75</ele>
        <time>2021-07-18T09:46:46Z</time>
      </trkpt>
      <trkpt lat="44.94652" lon="4.05308">
        <ele>1114.79</ele>
        <time>2021-07-18T09:47:08Z</time>
      </trkpt>
      <trkpt lat="44.9466" lon="4.05278">
        <ele>1114.79</ele>
        <time>2021-07-18T09:47:24Z</time>
      </trkpt>
      <trkpt lat="44.94663" lon="4.05258">
        <ele>1114.31</ele>
        <time>2021-07-18T09:47:34Z</time>
      </trkpt>
      <trkpt lat="44.94667" lon="4.05225">
        <ele>1113.82</ele>
        <time>2021-07-18T09:47:52Z</time>
      </trkpt>
      <trkpt lat="44.94672" lon="4.05191">
        <ele>1113.82</ele>
        <time>2021-07-18T09:48:10Z</time>
      </trkpt>
      <trkpt lat="44.94675" lon="4.05155">
        <ele>1115.75</ele>
        <time>2021-07-18T09:48:28Z</time>
      </trkpt>
      <trkpt lat="44.94679" lon="4.05117">
        <ele>1116.71</ele>
        <time>2021-07-18T09:48:48Z</time>
      </trkpt>
      <trkpt lat="44.9468" lon="4.05082">
        <ele>1115.75</ele>
        <time>2021-07-18T09:49:07Z</time>
      </trkpt>
      <trkpt lat="44.9468" lon="4.05047">
        <ele>1114.79</ele>
        <time>2021-07-18T09:49:27Z</time>
      </trkpt>
      <trkpt lat="44.9468" lon="4.05021">
        <ele>1113.82</ele>
        <time>2021-07-18T09:49:42Z</time>
      </trkpt>
      <trkpt lat="44.94679" lon="4.04996">
        <ele>1113.34</ele>
        <time>2021-07-18T09:49:55Z</time>
      </trkpt>
      <trkpt lat="44.94679" lon="4.04964">
        <ele>1113.34</ele>
        <time>2021-07-18T09:50:12Z</time>
      </trkpt>
      <trkpt lat="44.94679" lon="4.04937">
        <ele>1114.79</ele>
        <time>2021-07-18T09:50:28Z</time>
      </trkpt>
      <trkpt lat="44.9468" lon="4.04908">
        <ele>1115.27</ele>
        <time>2021-07-18T09:50:44Z</time>
      </trkpt>
      <trkpt lat="44.9468" lon="4.0488">
        <ele>1114.31</ele>
        <time>2021-07-18T09:50:59Z</time>
      </trkpt>
      <trkpt lat="44.94679" lon="4.04851">
        <ele>1113.34</ele>
        <time>2021-07-18T09:51:15Z</time>
      </trkpt>
      <trkpt lat="44.94677" lon="4.0484">
        <ele>1114.79</ele>
        <time>2021-07-18T09:51:21Z</time>
      </trkpt>
      <trkpt lat="44.94675" lon="4.04822">
        <ele>1115.27</ele>
        <time>2021-07-18T09:51:32Z</time>
      </trkpt>
      <trkpt lat="44.9468" lon="4.04792">
        <ele>1114.31</ele>
        <time>2021-07-18T09:51:47Z</time>
      </trkpt>
      <trkpt lat="44.94678" lon="4.04762">
        <ele>1112.38</ele>
        <time>2021-07-18T09:52:03Z</time>
      </trkpt>
      <trkpt lat="44.94674" lon="4.04732">
        <ele>1109.5</ele>
        <time>2021-07-18T09:52:18Z</time>
      </trkpt>
      <trkpt lat="44.94666" lon="4.047">
        <ele>1108.06</ele>
        <time>2021-07-18T09:52:34Z</time>
      </trkpt>
      <trkpt lat="44.94661" lon="4.0469">
        <ele>1107.1</ele>
        <time>2021-07-18T09:52:40Z</time>
      </trkpt>
      <trkpt lat="44.94657" lon="4.04691">
        <ele>1106.61</ele>
        <time>2021-07-18T09:52:45Z</time>
      </trkpt>
      <trkpt lat="44.94654" lon="4.04693">
        <ele>1107.1</ele>
        <time>2021-07-18T09:52:48Z</time>
      </trkpt>
      <trkpt lat="44.94633" lon="4.04707">
        <ele>1105.65</ele>
        <time>2021-07-18T09:53:05Z</time>
      </trkpt>
      <trkpt lat="44.9462" lon="4.04735">
        <ele>1107.1</ele>
        <time>2021-07-18T09:53:22Z</time>
      </trkpt>
      <trkpt lat="44.94613" lon="4.04768">
        <ele>1108.06</ele>
        <time>2021-07-18T09:53:39Z</time>
      </trkpt>
      <trkpt lat="44.94607" lon="4.04805">
        <ele>1105.65</ele>
        <time>2021-07-18T09:53:57Z</time>
      </trkpt>
      <trkpt lat="44.94598" lon="4.04839">
        <ele>1101.81</ele>
        <time>2021-07-18T09:54:15Z</time>
      </trkpt>
      <trkpt lat="44.9459" lon="4.0487">
        <ele>1099.89</ele>
        <time>2021-07-18T09:54:32Z</time>
      </trkpt>
      <trkpt lat="44.94586" lon="4.04903">
        <ele>1096.52</ele>
        <time>2021-07-18T09:54:49Z</time>
      </trkpt>
      <trkpt lat="44.9458" lon="4.04934">
        <ele>1094.12</ele>
        <time>2021-07-18T09:55:05Z</time>
      </trkpt>
      <trkpt lat="44.94574" lon="4.04965">
        <ele>1091.71</ele>
        <time>2021-07-18T09:55:22Z</time>
      </trkpt>
      <trkpt lat="44.94568" lon="4.04995">
        <ele>1090.75</ele>
        <time>2021-07-18T09:55:38Z</time>
      </trkpt>
      <trkpt lat="44.94557" lon="4.05033">
        <ele>1089.79</ele>
        <time>2021-07-18T09:55:59Z</time>
      </trkpt>
      <trkpt lat="44.94544" lon="4.05059">
        <ele>1086.91</ele>
        <time>2021-07-18T09:56:15Z</time>
      </trkpt>
      <trkpt lat="44.94524" lon="4.05082">
        <ele>1086.43</ele>
        <time>2021-07-18T09:56:33Z</time>
      </trkpt>
      <trkpt lat="44.94507" lon="4.051">
        <ele>1086.91</ele>
        <time>2021-07-18T09:56:49Z</time>
      </trkpt>
      <trkpt lat="44.94487" lon="4.05129">
        <ele>1087.39</ele>
        <time>2021-07-18T09:57:08Z</time>
      </trkpt>
      <trkpt lat="44.94466" lon="4.05161">
        <ele>1083.06</ele>
        <time>2021-07-18T09:57:30Z</time>
      </trkpt>
      <trkpt lat="44.94444" lon="4.05193">
        <ele>1081.14</ele>
        <time>2021-07-18T09:57:51Z</time>
      </trkpt>
      <trkpt lat="44.94422" lon="4.05221">
        <ele>1081.62</ele>
        <time>2021-07-18T09:58:12Z</time>
      </trkpt>
      <trkpt lat="44.94395" lon="4.05244">
        <ele>1081.14</ele>
        <time>2021-07-18T09:58:34Z</time>
      </trkpt>
      <trkpt lat="44.94378" lon="4.05274">
        <ele>1081.14</ele>
        <time>2021-07-18T09:58:53Z</time>
      </trkpt>
      <trkpt lat="44.94363" lon="4.05308">
        <ele>1083.06</ele>
        <time>2021-07-18T09:59:13Z</time>
      </trkpt>
      <trkpt lat="44.94341" lon="4.05324">
        <ele>1082.58</ele>
        <time>2021-07-18T09:59:30Z</time>
      </trkpt>
      <trkpt lat="44.94322" lon="4.05333">
        <ele>1082.1</ele>
        <time>2021-07-18T09:59:45Z</time>
      </trkpt>
      <trkpt lat="44.94309" lon="4.05339">
        <ele>1083.06</ele>
        <time>2021-07-18T10:00:00Z</time>
      </trkpt>
      <trkpt lat="44.94302" lon="4.05344">
        <ele>1083.06</ele>
        <time>2021-07-18T10:00:12Z</time>
      </trkpt>
      <trkpt lat="44.94283" lon="4.05351">
        <ele>1084.99</ele>
        <time>2021-07-18T10:00:30Z</time>
      </trkpt>
      <trkpt lat="44.94261" lon="4.05359">
        <ele>1086.91</ele>
        <time>2021-07-18T10:00:49Z</time>
      </trkpt>
      <trkpt lat="44.94244" lon="4.0537">
        <ele>1088.83</ele>
        <time>2021-07-18T10:01:06Z</time>
      </trkpt>
      <trkpt lat="44.94226" lon="4.0538">
        <ele>1090.27</ele>
        <time>2021-07-18T10:01:22Z</time>
      </trkpt>
      <trkpt lat="44.94222" lon="4.05381">
        <ele>1091.23</ele>
        <time>2021-07-18T10:01:25Z</time>
      </trkpt>
      <trkpt lat="44.94211" lon="4.05386">
        <ele>1091.71</ele>
        <time>2021-07-18T10:01:34Z</time>
      </trkpt>
      <trkpt lat="44.94189" lon="4.05398">
        <ele>1094.12</ele>
        <time>2021-07-18T10:01:53Z</time>
      </trkpt>
      <trkpt lat="44.94171" lon="4.05413">
        <ele>1094.6</ele>
        <time>2021-07-18T10:02:10Z</time>
      </trkpt>
      <trkpt lat="44.94152" lon="4.05427">
        <ele>1095.56</ele>
        <time>2021-07-18T10:02:27Z</time>
      </trkpt>
      <trkpt lat="44.94149" lon="4.05429">
        <ele>1095.56</ele>
        <time>2021-07-18T10:02:30Z</time>
      </trkpt>
      <trkpt lat="44.94131" lon="4.05434">
        <ele>1097.96</ele>
        <time>2021-07-18T10:02:47Z</time>
      </trkpt>
      <trkpt lat="44.94115" lon="4.05455">
        <ele>1098.92</ele>
        <time>2021-07-18T10:03:05Z</time>
      </trkpt>
      <trkpt lat="44.94106" lon="4.05466">
        <ele>1098.44</ele>
        <time>2021-07-18T10:03:15Z</time>
      </trkpt>
      <trkpt lat="44.94105" lon="4.05469">
        <ele>1098.44</ele>
        <time>2021-07-18T10:03:17Z</time>
      </trkpt>
      <trkpt lat="44.94105" lon="4.05474">
        <ele>1098.44</ele>
        <time>2021-07-18T10:03:21Z</time>
      </trkpt>
      <trkpt lat="44.94109" lon="4.05494">
        <ele>1098.92</ele>
        <time>2021-07-18T10:03:36Z</time>
      </trkpt>
      <trkpt lat="44.94108" lon="4.05499">
        <ele>1099.4</ele>
        <time>2021-07-18T10:03:50Z</time>
      </trkpt>
      <trkpt lat="44.94109" lon="4.05499">
        <ele>1098.92</ele>
        <time>2021-07-18T10:04:05Z</time>
      </trkpt>
      <trkpt lat="44.94115" lon="4.05499">
        <ele>1098.92</ele>
        <time>2021-07-18T10:04:16Z</time>
      </trkpt>
      <trkpt lat="44.94119" lon="4.05497">
        <ele>1098.92</ele>
        <time>2021-07-18T10:04:31Z</time>
      </trkpt>
      <trkpt lat="44.94111" lon="4.05501">
        <ele>1099.4</ele>
        <time>2021-07-18T10:04:43Z</time>
      </trkpt>
      <trkpt lat="44.9411" lon="4.05502">
        <ele>1097.96</ele>
        <time>2021-07-18T10:05:09Z</time>
      </trkpt>
      <trkpt lat="44.94108" lon="4.05517">
        <ele>1099.4</ele>
        <time>2021-07-18T10:05:23Z</time>
      </trkpt>
      <trkpt lat="44.94107" lon="4.0552">
        <ele>1101.33</ele>
        <time>2021-07-18T10:05:44Z</time>
      </trkpt>
      <trkpt lat="44.94103" lon="4.05529">
        <ele>1101.81</ele>
        <time>2021-07-18T10:05:58Z</time>
      </trkpt>
      <trkpt lat="44.94094" lon="4.05547">
        <ele>1101.81</ele>
        <time>2021-07-18T10:06:15Z</time>
      </trkpt>
      <trkpt lat="44.9408" lon="4.05571">
        <ele>1103.25</ele>
        <time>2021-07-18T10:06:32Z</time>
      </trkpt>
      <trkpt lat="44.94072" lon="4.05587">
        <ele>1104.69</ele>
        <time>2021-07-18T10:06:43Z</time>
      </trkpt>
      <trkpt lat="44.94069" lon="4.05593">
        <ele>1105.17</ele>
        <time>2021-07-18T10:06:47Z</time>
      </trkpt>
      <trkpt lat="44.9406" lon="4.05609">
        <ele>1107.1</ele>
        <time>2021-07-18T10:07:00Z</time>
      </trkpt>
      <trkpt lat="44.94056" lon="4.05616">
        <ele>1108.06</ele>
        <time>2021-07-18T10:07:05Z</time>
      </trkpt>
      <trkpt lat="44.94043" lon="4.05636">
        <ele>1109.02</ele>
        <time>2021-07-18T10:07:20Z</time>
      </trkpt>
      <trkpt lat="44.94032" lon="4.05656">
        <ele>1109.5</ele>
        <time>2021-07-18T10:07:35Z</time>
      </trkpt>
      <trkpt lat="44.94031" lon="4.05657">
        <ele>1109.5</ele>
        <time>2021-07-18T10:07:36Z</time>
      </trkpt>
      <trkpt lat="44.94022" lon="4.05673">
        <ele>1108.54</ele>
        <time>2021-07-18T10:07:50Z</time>
      </trkpt>
      <trkpt lat="44.94019" lon="4.05678">
        <ele>1109.02</ele>
        <time>2021-07-18T10:07:55Z</time>
      </trkpt>
      <trkpt lat="44.94011" lon="4.05692">
        <ele>1110.46</ele>
        <time>2021-07-18T10:08:08Z</time>
      </trkpt>
      <trkpt lat="44.94006" lon="4.05703">
        <ele>1111.9</ele>
        <time>2021-07-18T10:08:23Z</time>
      </trkpt>
      <trkpt lat="44.93998" lon="4.05722">
        <ele>1111.9</ele>
        <time>2021-07-18T10:08:38Z</time>
      </trkpt>
      <trkpt lat="44.93988" lon="4.05739">
        <ele>1110.46</ele>
        <time>2021-07-18T10:08:51Z</time>
      </trkpt>
      <trkpt lat="44.93985" lon="4.05744">
        <ele>1111.42</ele>
        <time>2021-07-18T10:08:54Z</time>
      </trkpt>
      <trkpt lat="44.93971" lon="4.0577">
        <ele>1117.67</ele>
        <time>2021-07-18T10:09:12Z</time>
      </trkpt>
      <trkpt lat="44.93961" lon="4.05795">
        <ele>1121.03</ele>
        <time>2021-07-18T10:09:29Z</time>
      </trkpt>
      <trkpt lat="44.93952" lon="4.05813">
        <ele>1123.92</ele>
        <time>2021-07-18T10:09:45Z</time>
      </trkpt>
      <trkpt lat="44.93948" lon="4.05826">
        <ele>1124.4</ele>
        <time>2021-07-18T10:09:54Z</time>
      </trkpt>
      <trkpt lat="44.93947" lon="4.05852">
        <ele>1128.24</ele>
        <time>2021-07-18T10:10:11Z</time>
      </trkpt>
      <trkpt lat="44.93948" lon="4.0587">
        <ele>1129.69</ele>
        <time>2021-07-18T10:10:24Z</time>
      </trkpt>
      <trkpt lat="44.93949" lon="4.05877">
        <ele>1130.65</ele>
        <time>2021-07-18T10:10:28Z</time>
      </trkpt>
      <trkpt lat="44.93949" lon="4.0588">
        <ele>1131.13</ele>
        <time>2021-07-18T10:10:30Z</time>
      </trkpt>
      <trkpt lat="44.93948" lon="4.05899">
        <ele>1132.57</ele>
        <time>2021-07-18T10:10:44Z</time>
      </trkpt>
      <trkpt lat="44.93947" lon="4.05918">
        <ele>1134.49</ele>
        <time>2021-07-18T10:10:58Z</time>
      </trkpt>
      <trkpt lat="44.93946" lon="4.05921">
        <ele>1134.97</ele>
        <time>2021-07-18T10:11:00Z</time>
      </trkpt>
      <trkpt lat="44.93948" lon="4.05947">
        <ele>1134.49</ele>
        <time>2021-07-18T10:11:17Z</time>
      </trkpt>
      <trkpt lat="44.93949" lon="4.0596">
        <ele>1135.45</ele>
        <time>2021-07-18T10:11:30Z</time>
      </trkpt>
      <trkpt lat="44.93948" lon="4.05964">
        <ele>1134.97</ele>
        <time>2021-07-18T10:11:41Z</time>
      </trkpt>
      <trkpt lat="44.93948" lon="4.05965">
        <ele>1135.45</ele>
        <time>2021-07-18T10:11:56Z</time>
      </trkpt>
      <trkpt lat="44.93951" lon="4.05965">
        <ele>1134.97</ele>
        <time>2021-07-18T10:12:06Z</time>
      </trkpt>
      <trkpt lat="44.93954" lon="4.05964">
        <ele>1134.97</ele>
        <time>2021-07-18T10:12:10Z</time>
      </trkpt>
      <trkpt lat="44.93956" lon="4.05957">
        <ele>1135.94</ele>
        <time>2021-07-18T10:12:15Z</time>
      </trkpt>
      <trkpt lat="44.93954" lon="4.05949">
        <ele>1137.38</ele>
        <time>2021-07-18T10:12:22Z</time>
      </trkpt>
      <trkpt lat="44.93955" lon="4.05931">
        <ele>1139.78</ele>
        <time>2021-07-18T10:12:35Z</time>
      </trkpt>
      <trkpt lat="44.93959" lon="4.05922">
        <ele>1142.66</ele>
        <time>2021-07-18T10:12:44Z</time>
      </trkpt>
      <trkpt lat="44.9397" lon="4.05907">
        <ele>1146.51</ele>
        <time>2021-07-18T10:13:00Z</time>
      </trkpt>
      <trkpt lat="44.93977" lon="4.05889">
        <ele>1150.35</ele>
        <time>2021-07-18T10:13:14Z</time>
      </trkpt>
      <trkpt lat="44.93986" lon="4.05879">
        <ele>1150.35</ele>
        <time>2021-07-18T10:13:27Z</time>
      </trkpt>
      <trkpt lat="44.93994" lon="4.05873">
        <ele>1150.35</ele>
        <time>2021-07-18T10:13:35Z</time>
      </trkpt>
      <trkpt lat="44.94002" lon="4.05875">
        <ele>1153.24</ele>
        <time>2021-07-18T10:13:46Z</time>
      </trkpt>
      <trkpt lat="44.94015" lon="4.05879">
        <ele>1154.2</ele>
        <time>2021-07-18T10:14:02Z</time>
      </trkpt>
      <trkpt lat="44.94019" lon="4.05882">
        <ele>1154.68</ele>
        <time>2021-07-18T10:14:14Z</time>
      </trkpt>
      <trkpt lat="44.94019" lon="4.05886">
        <ele>1152.28</ele>
        <time>2021-07-18T10:14:28Z</time>
      </trkpt>
      <trkpt lat="44.94013" lon="4.05894">
        <ele>1152.76</ele>
        <time>2021-07-18T10:14:43Z</time>
      </trkpt>
      <trkpt lat="44.94011" lon="4.059">
        <ele>1153.24</ele>
        <time>2021-07-18T10:14:48Z</time>
      </trkpt>
      <trkpt lat="44.94008" lon="4.05911">
        <ele>1152.76</ele>
        <time>2021-07-18T10:15:01Z</time>
      </trkpt>
      <trkpt lat="44.94006" lon="4.05912">
        <ele>1152.76</ele>
        <time>2021-07-18T10:15:14Z</time>
      </trkpt>
      <trkpt lat="44.94007" lon="4.05914">
        <ele>1151.8</ele>
        <time>2021-07-18T10:15:30Z</time>
      </trkpt>
      <trkpt lat="44.94007" lon="4.05916">
        <ele>1151.32</ele>
        <time>2021-07-18T10:15:37Z</time>
      </trkpt>
      <trkpt lat="44.93999" lon="4.05923">
        <ele>1153.24</ele>
        <time>2021-07-18T10:15:50Z</time>
      </trkpt>
      <trkpt lat="44.9399" lon="4.05922">
        <ele>1152.28</ele>
        <time>2021-07-18T10:16:05Z</time>
      </trkpt>
      <trkpt lat="44.93989" lon="4.05922">
        <ele>1151.32</ele>
        <time>2021-07-18T10:16:23Z</time>
      </trkpt>
      <trkpt lat="44.93988" lon="4.05923">
        <ele>1150.84</ele>
        <time>2021-07-18T10:16:54Z</time>
      </trkpt>
      <trkpt lat="44.93988" lon="4.05922">
        <ele>1150.84</ele>
        <time>2021-07-18T10:17:15Z</time>
      </trkpt>
      <trkpt lat="44.93988" lon="4.05921">
        <ele>1150.35</ele>
        <time>2021-07-18T10:17:40Z</time>
      </trkpt>
      <trkpt lat="44.93988" lon="4.05921">
        <ele>1150.35</ele>
        <time>2021-07-18T10:17:59Z</time>
      </trkpt>
      <trkpt lat="44.93989" lon="4.05922">
        <ele>1150.84</ele>
        <time>2021-07-18T10:18:16Z</time>
      </trkpt>
      <trkpt lat="44.93989" lon="4.05922">
        <ele>1150.35</ele>
        <time>2021-07-18T10:18:35Z</time>
      </trkpt>
      <trkpt lat="44.93996" lon="4.05926">
        <ele>1149.87</ele>
        <time>2021-07-18T10:18:44Z</time>
      </trkpt>
      <trkpt lat="44.93999" lon="4.0593">
        <ele>1148.43</ele>
        <time>2021-07-18T10:18:48Z</time>
      </trkpt>
      <trkpt lat="44.9401" lon="4.05944">
        <ele>1146.99</ele>
        <time>2021-07-18T10:19:05Z</time>
      </trkpt>
      <trkpt lat="44.94022" lon="4.05951">
        <ele>1145.55</ele>
        <time>2021-07-18T10:19:15Z</time>
      </trkpt>
      <trkpt lat="44.94043" lon="4.05961">
        <ele>1144.59</ele>
        <time>2021-07-18T10:19:33Z</time>
      </trkpt>
      <trkpt lat="44.9405" lon="4.05972">
        <ele>1143.63</ele>
        <time>2021-07-18T10:19:44Z</time>
      </trkpt>
      <trkpt lat="44.94046" lon="4.05984">
        <ele>1143.63</ele>
        <time>2021-07-18T10:19:52Z</time>
      </trkpt>
      <trkpt lat="44.94031" lon="4.05989">
        <ele>1143.14</ele>
        <time>2021-07-18T10:20:08Z</time>
      </trkpt>
      <trkpt lat="44.94019" lon="4.05988">
        <ele>1143.14</ele>
        <time>2021-07-18T10:20:19Z</time>
      </trkpt>
      <trkpt lat="44.94" lon="4.05986">
        <ele>1143.14</ele>
        <time>2021-07-18T10:20:36Z</time>
      </trkpt>
      <trkpt lat="44.93979" lon="4.05986">
        <ele>1140.26</ele>
        <time>2021-07-18T10:20:54Z</time>
      </trkpt>
      <trkpt lat="44.93955" lon="4.05983">
        <ele>1138.82</ele>
        <time>2021-07-18T10:21:14Z</time>
      </trkpt>
      <trkpt lat="44.93937" lon="4.05974">
        <ele>1137.86</ele>
        <time>2021-07-18T10:21:31Z</time>
      </trkpt>
      <trkpt lat="44.93936" lon="4.05974">
        <ele>1137.86</ele>
        <time>2021-07-18T10:21:32Z</time>
      </trkpt>
      <trkpt lat="44.93916" lon="4.05972">
        <ele>1137.86</ele>
        <time>2021-07-18T10:21:49Z</time>
      </trkpt>
      <trkpt lat="44.93915" lon="4.05972">
        <ele>1137.86</ele>
        <time>2021-07-18T10:21:50Z</time>
      </trkpt>
      <trkpt lat="44.93896" lon="4.05979">
        <ele>1136.9</ele>
        <time>2021-07-18T10:22:07Z</time>
      </trkpt>
      <trkpt lat="44.93875" lon="4.05994">
        <ele>1134.97</ele>
        <time>2021-07-18T10:22:25Z</time>
      </trkpt>
      <trkpt lat="44.93862" lon="4.06003">
        <ele>1135.45</ele>
        <time>2021-07-18T10:22:40Z</time>
      </trkpt>
      <trkpt lat="44.93861" lon="4.06005">
        <ele>1135.45</ele>
        <time>2021-07-18T10:22:42Z</time>
      </trkpt>
      <trkpt lat="44.93846" lon="4.06019">
        <ele>1134.97</ele>
        <time>2021-07-18T10:23:00Z</time>
      </trkpt>
      <trkpt lat="44.93831" lon="4.06027">
        <ele>1132.57</ele>
        <time>2021-07-18T10:23:16Z</time>
      </trkpt>
      <trkpt lat="44.9382" lon="4.06047">
        <ele>1132.57</ele>
        <time>2021-07-18T10:23:33Z</time>
      </trkpt>
      <trkpt lat="44.93812" lon="4.06061">
        <ele>1134.01</ele>
        <time>2021-07-18T10:23:47Z</time>
      </trkpt>
      <trkpt lat="44.93811" lon="4.06066">
        <ele>1135.45</ele>
        <time>2021-07-18T10:23:51Z</time>
      </trkpt>
      <trkpt lat="44.93812" lon="4.06088">
        <ele>1135.94</ele>
        <time>2021-07-18T10:24:06Z</time>
      </trkpt>
      <trkpt lat="44.93812" lon="4.06114">
        <ele>1137.38</ele>
        <time>2021-07-18T10:24:22Z</time>
      </trkpt>
      <trkpt lat="44.93804" lon="4.06138">
        <ele>1139.3</ele>
        <time>2021-07-18T10:24:40Z</time>
      </trkpt>
      <trkpt lat="44.938" lon="4.06145">
        <ele>1139.3</ele>
        <time>2021-07-18T10:24:45Z</time>
      </trkpt>
      <trkpt lat="44.93791" lon="4.06161">
        <ele>1139.3</ele>
        <time>2021-07-18T10:24:57Z</time>
      </trkpt>
      <trkpt lat="44.93782" lon="4.06189">
        <ele>1141.22</ele>
        <time>2021-07-18T10:25:15Z</time>
      </trkpt>
      <trkpt lat="44.93773" lon="4.06216">
        <ele>1142.18</ele>
        <time>2021-07-18T10:25:33Z</time>
      </trkpt>
      <trkpt lat="44.93768" lon="4.06241">
        <ele>1144.59</ele>
        <time>2021-07-18T10:25:48Z</time>
      </trkpt>
      <trkpt lat="44.93762" lon="4.06269">
        <ele>1150.35</ele>
        <time>2021-07-18T10:26:04Z</time>
      </trkpt>
      <trkpt lat="44.93755" lon="4.06301">
        <ele>1150.84</ele>
        <time>2021-07-18T10:26:23Z</time>
      </trkpt>
      <trkpt lat="44.93754" lon="4.06309">
        <ele>1150.84</ele>
        <time>2021-07-18T10:26:28Z</time>
      </trkpt>
      <trkpt lat="44.93751" lon="4.06335">
        <ele>1150.35</ele>
        <time>2021-07-18T10:26:42Z</time>
      </trkpt>
      <trkpt lat="44.93747" lon="4.06374">
        <ele>1151.32</ele>
        <time>2021-07-18T10:27:03Z</time>
      </trkpt>
      <trkpt lat="44.93746" lon="4.06412">
        <ele>1151.8</ele>
        <time>2021-07-18T10:27:23Z</time>
      </trkpt>
      <trkpt lat="44.93752" lon="4.0645">
        <ele>1151.8</ele>
        <time>2021-07-18T10:27:44Z</time>
      </trkpt>
      <trkpt lat="44.93761" lon="4.06491">
        <ele>1153.24</ele>
        <time>2021-07-18T10:28:06Z</time>
      </trkpt>
      <trkpt lat="44.93771" lon="4.06523">
        <ele>1153.72</ele>
        <time>2021-07-18T10:28:24Z</time>
      </trkpt>
      <trkpt lat="44.93782" lon="4.06564">
        <ele>1154.68</ele>
        <time>2021-07-18T10:28:46Z</time>
      </trkpt>
      <trkpt lat="44.93791" lon="4.06604">
        <ele>1155.64</ele>
        <time>2021-07-18T10:29:08Z</time>
      </trkpt>
      <trkpt lat="44.93807" lon="4.06637">
        <ele>1157.56</ele>
        <time>2021-07-18T10:29:29Z</time>
      </trkpt>
      <trkpt lat="44.93818" lon="4.06665">
        <ele>1159.01</ele>
        <time>2021-07-18T10:29:46Z</time>
      </trkpt>
      <trkpt lat="44.93828" lon="4.06698">
        <ele>1161.41</ele>
        <time>2021-07-18T10:30:05Z</time>
      </trkpt>
      <trkpt lat="44.93836" lon="4.06729">
        <ele>1165.26</ele>
        <time>2021-07-18T10:30:22Z</time>
      </trkpt>
      <trkpt lat="44.9384" lon="4.0676">
        <ele>1167.66</ele>
        <time>2021-07-18T10:30:41Z</time>
      </trkpt>
      <trkpt lat="44.93847" lon="4.06798">
        <ele>1165.74</ele>
        <time>2021-07-18T10:31:01Z</time>
      </trkpt>
      <trkpt lat="44.93849" lon="4.06802">
        <ele>1165.26</ele>
        <time>2021-07-18T10:31:04Z</time>
      </trkpt>
      <trkpt lat="44.9385" lon="4.06808">
        <ele>1166.22</ele>
        <time>2021-07-18T10:31:15Z</time>
      </trkpt>
      <trkpt lat="44.93858" lon="4.06834">
        <ele>1167.18</ele>
        <time>2021-07-18T10:31:31Z</time>
      </trkpt>
      <trkpt lat="44.93859" lon="4.0684">
        <ele>1167.18</ele>
        <time>2021-07-18T10:31:34Z</time>
      </trkpt>
      <trkpt lat="44.93872" lon="4.06865">
        <ele>1168.14</ele>
        <time>2021-07-18T10:31:52Z</time>
      </trkpt>
      <trkpt lat="44.93875" lon="4.06866">
        <ele>1168.14</ele>
        <time>2021-07-18T10:31:58Z</time>
      </trkpt>
      <trkpt lat="44.93879" lon="4.06871">
        <ele>1168.62</ele>
        <time>2021-07-18T10:32:03Z</time>
      </trkpt>
      <trkpt lat="44.93899" lon="4.06871">
        <ele>1171.5</ele>
        <time>2021-07-18T10:32:21Z</time>
      </trkpt>
      <trkpt lat="44.93916" lon="4.06863">
        <ele>1174.87</ele>
        <time>2021-07-18T10:32:36Z</time>
      </trkpt>
      <trkpt lat="44.93923" lon="4.06867">
        <ele>1175.83</ele>
        <time>2021-07-18T10:32:43Z</time>
      </trkpt>
      <trkpt lat="44.93934" lon="4.06898">
        <ele>1176.79</ele>
        <time>2021-07-18T10:33:03Z</time>
      </trkpt>
      <trkpt lat="44.93948" lon="4.06925">
        <ele>1179.67</ele>
        <time>2021-07-18T10:33:22Z</time>
      </trkpt>
      <trkpt lat="44.93962" lon="4.06949">
        <ele>1182.08</ele>
        <time>2021-07-18T10:33:40Z</time>
      </trkpt>
      <trkpt lat="44.93977" lon="4.06978">
        <ele>1185.44</ele>
        <time>2021-07-18T10:34:00Z</time>
      </trkpt>
      <trkpt lat="44.93987" lon="4.06998">
        <ele>1187.37</ele>
        <time>2021-07-18T10:34:15Z</time>
      </trkpt>
      <trkpt lat="44.93987" lon="4.07002">
        <ele>1186.88</ele>
        <time>2021-07-18T10:34:29Z</time>
      </trkpt>
      <trkpt lat="44.93987" lon="4.07002">
        <ele>1186.88</ele>
        <time>2021-07-18T10:34:32Z</time>
      </trkpt>
      <trkpt lat="44.93978" lon="4.07027">
        <ele>1187.37</ele>
        <time>2021-07-18T10:34:50Z</time>
      </trkpt>
      <trkpt lat="44.93965" lon="4.07052">
        <ele>1188.33</ele>
        <time>2021-07-18T10:35:08Z</time>
      </trkpt>
      <trkpt lat="44.9396" lon="4.07063">
        <ele>1188.81</ele>
        <time>2021-07-18T10:35:16Z</time>
      </trkpt>
      <trkpt lat="44.93949" lon="4.07093">
        <ele>1189.77</ele>
        <time>2021-07-18T10:35:34Z</time>
      </trkpt>
      <trkpt lat="44.93939" lon="4.07118">
        <ele>1189.77</ele>
        <time>2021-07-18T10:35:51Z</time>
      </trkpt>
      <trkpt lat="44.93937" lon="4.07125">
        <ele>1189.77</ele>
        <time>2021-07-18T10:35:55Z</time>
      </trkpt>
      <trkpt lat="44.93937" lon="4.07132">
        <ele>1190.25</ele>
        <time>2021-07-18T10:35:59Z</time>
      </trkpt>
      <trkpt lat="44.9394" lon="4.07163">
        <ele>1193.61</ele>
        <time>2021-07-18T10:36:17Z</time>
      </trkpt>
      <trkpt lat="44.93943" lon="4.07195">
        <ele>1192.17</ele>
        <time>2021-07-18T10:36:35Z</time>
      </trkpt>
      <trkpt lat="44.93944" lon="4.07223">
        <ele>1191.21</ele>
        <time>2021-07-18T10:36:51Z</time>
      </trkpt>
      <trkpt lat="44.93946" lon="4.07249">
        <ele>1190.73</ele>
        <time>2021-07-18T10:37:06Z</time>
      </trkpt>
      <trkpt lat="44.93949" lon="4.07277">
        <ele>1192.17</ele>
        <time>2021-07-18T10:37:22Z</time>
      </trkpt>
      <trkpt lat="44.93954" lon="4.07309">
        <ele>1193.13</ele>
        <time>2021-07-18T10:37:40Z</time>
      </trkpt>
      <trkpt lat="44.93959" lon="4.07334">
        <ele>1193.61</ele>
        <time>2021-07-18T10:37:54Z</time>
      </trkpt>
      <trkpt lat="44.93966" lon="4.07369">
        <ele>1194.09</ele>
        <time>2021-07-18T10:38:13Z</time>
      </trkpt>
      <trkpt lat="44.9397" lon="4.07398">
        <ele>1193.61</ele>
        <time>2021-07-18T10:38:29Z</time>
      </trkpt>
      <trkpt lat="44.93971" lon="4.07404">
        <ele>1193.61</ele>
        <time>2021-07-18T10:38:32Z</time>
      </trkpt>
      <trkpt lat="44.93978" lon="4.07435">
        <ele>1195.06</ele>
        <time>2021-07-18T10:38:49Z</time>
      </trkpt>
      <trkpt lat="44.93988" lon="4.07466">
        <ele>1196.5</ele>
        <time>2021-07-18T10:39:07Z</time>
      </trkpt>
      <trkpt lat="44.93995" lon="4.075">
        <ele>1192.17</ele>
        <time>2021-07-18T10:39:25Z</time>
      </trkpt>
      <trkpt lat="44.94001" lon="4.07535">
        <ele>1191.69</ele>
        <time>2021-07-18T10:39:44Z</time>
      </trkpt>
      <trkpt lat="44.94002" lon="4.07576">
        <ele>1191.21</ele>
        <time>2021-07-18T10:40:06Z</time>
      </trkpt>
      <trkpt lat="44.94005" lon="4.07618">
        <ele>1192.17</ele>
        <time>2021-07-18T10:40:27Z</time>
      </trkpt>
      <trkpt lat="44.94007" lon="4.07647">
        <ele>1195.54</ele>
        <time>2021-07-18T10:40:44Z</time>
      </trkpt>
      <trkpt lat="44.94009" lon="4.07679">
        <ele>1196.98</ele>
        <time>2021-07-18T10:41:01Z</time>
      </trkpt>
      <trkpt lat="44.94009" lon="4.07713">
        <ele>1197.46</ele>
        <time>2021-07-18T10:41:19Z</time>
      </trkpt>
      <trkpt lat="44.94013" lon="4.07748">
        <ele>1196.98</ele>
        <time>2021-07-18T10:41:38Z</time>
      </trkpt>
      <trkpt lat="44.94012" lon="4.07792">
        <ele>1193.61</ele>
        <time>2021-07-18T10:42:01Z</time>
      </trkpt>
      <trkpt lat="44.94008" lon="4.0784">
        <ele>1186.88</ele>
        <time>2021-07-18T10:42:26Z</time>
      </trkpt>
      <trkpt lat="44.94" lon="4.07874">
        <ele>1184.48</ele>
        <time>2021-07-18T10:42:46Z</time>
      </trkpt>
      <trkpt lat="44.93995" lon="4.07908">
        <ele>1184.48</ele>
        <time>2021-07-18T10:43:05Z</time>
      </trkpt>
      <trkpt lat="44.94002" lon="4.07936">
        <ele>1184</ele>
        <time>2021-07-18T10:43:23Z</time>
      </trkpt>
      <trkpt lat="44.93997" lon="4.07946">
        <ele>1184.96</ele>
        <time>2021-07-18T10:43:31Z</time>
      </trkpt>
      <trkpt lat="44.93996" lon="4.07951">
        <ele>1185.44</ele>
        <time>2021-07-18T10:43:37Z</time>
      </trkpt>
      <trkpt lat="44.93997" lon="4.07951">
        <ele>1185.92</ele>
        <time>2021-07-18T10:43:49Z</time>
      </trkpt>
      <trkpt lat="44.93997" lon="4.07952">
        <ele>1185.92</ele>
        <time>2021-07-18T10:44:11Z</time>
      </trkpt>
      <trkpt lat="44.93998" lon="4.07952">
        <ele>1184.96</ele>
        <time>2021-07-18T10:44:38Z</time>
      </trkpt>
      <trkpt lat="44.93997" lon="4.07953">
        <ele>1184.96</ele>
        <time>2021-07-18T10:45:06Z</time>
      </trkpt>
      <trkpt lat="44.93997" lon="4.07952">
        <ele>1186.4</ele>
        <time>2021-07-18T10:45:32Z</time>
      </trkpt>
      <trkpt lat="44.93996" lon="4.07952">
        <ele>1187.37</ele>
        <time>2021-07-18T10:46:01Z</time>
      </trkpt>
      <trkpt lat="44.93996" lon="4.07954">
        <ele>1187.85</ele>
        <time>2021-07-18T10:46:27Z</time>
      </trkpt>
      <trkpt lat="44.93996" lon="4.07955">
        <ele>1188.33</ele>
        <time>2021-07-18T10:47:00Z</time>
      </trkpt>
      <trkpt lat="44.93995" lon="4.07955">
        <ele>1188.81</ele>
        <time>2021-07-18T10:47:38Z</time>
      </trkpt>
      <trkpt lat="44.93995" lon="4.07956">
        <ele>1191.21</ele>
        <time>2021-07-18T10:48:17Z</time>
      </trkpt>
      <trkpt lat="44.93994" lon="4.07958">
        <ele>1191.21</ele>
        <time>2021-07-18T10:49:02Z</time>
      </trkpt>
      <trkpt lat="44.93994" lon="4.0796">
        <ele>1191.69</ele>
        <time>2021-07-18T10:49:43Z</time>
      </trkpt>
      <trkpt lat="44.93995" lon="4.07959">
        <ele>1191.69</ele>
        <time>2021-07-18T10:50:20Z</time>
      </trkpt>
      <trkpt lat="44.93995" lon="4.07958">
        <ele>1191.69</ele>
        <time>2021-07-18T10:50:51Z</time>
      </trkpt>
      <trkpt lat="44.93995" lon="4.07957">
        <ele>1190.25</ele>
        <time>2021-07-18T10:51:36Z</time>
      </trkpt>
      <trkpt lat="44.93995" lon="4.07956">
        <ele>1190.25</ele>
        <time>2021-07-18T10:52:17Z</time>
      </trkpt>
      <trkpt lat="44.93994" lon="4.07954">
        <ele>1189.77</ele>
        <time>2021-07-18T10:52:58Z</time>
      </trkpt>
      <trkpt lat="44.93995" lon="4.07954">
        <ele>1190.73</ele>
        <time>2021-07-18T10:53:36Z</time>
      </trkpt>
      <trkpt lat="44.93995" lon="4.07955">
        <ele>1190.73</ele>
        <time>2021-07-18T10:54:10Z</time>
      </trkpt>
      <trkpt lat="44.93995" lon="4.07954">
        <ele>1190.25</ele>
        <time>2021-07-18T10:54:56Z</time>
      </trkpt>
      <trkpt lat="44.93994" lon="4.07955">
        <ele>1189.29</ele>
        <time>2021-07-18T10:55:41Z</time>
      </trkpt>
      <trkpt lat="44.93993" lon="4.07954">
        <ele>1186.4</ele>
        <time>2021-07-18T10:56:24Z</time>
      </trkpt>
      <trkpt lat="44.93993" lon="4.07955">
        <ele>1186.4</ele>
        <time>2021-07-18T10:57:04Z</time>
      </trkpt>
      <trkpt lat="44.93993" lon="4.07956">
        <ele>1185.92</ele>
        <time>2021-07-18T10:57:34Z</time>
      </trkpt>
      <trkpt lat="44.93993" lon="4.07956">
        <ele>1185.44</ele>
        <time>2021-07-18T10:58:05Z</time>
      </trkpt>
      <trkpt lat="44.93994" lon="4.07956">
        <ele>1184.96</ele>
        <time>2021-07-18T10:58:47Z</time>
      </trkpt>
      <trkpt lat="44.93994" lon="4.07957">
        <ele>1185.44</ele>
        <time>2021-07-18T10:59:27Z</time>
      </trkpt>
      <trkpt lat="44.93995" lon="4.07956">
        <ele>1185.44</ele>
        <time>2021-07-18T11:00:07Z</time>
      </trkpt>
      <trkpt lat="44.93994" lon="4.07955">
        <ele>1184</ele>
        <time>2021-07-18T11:00:51Z</time>
      </trkpt>
      <trkpt lat="44.93994" lon="4.07955">
        <ele>1184</ele>
        <time>2021-07-18T11:01:38Z</time>
      </trkpt>
      <trkpt lat="44.93994" lon="4.07955">
        <ele>1183.52</ele>
        <time>2021-07-18T11:02:25Z</time>
      </trkpt>
      <trkpt lat="44.93994" lon="4.07954">
        <ele>1182.56</ele>
        <time>2021-07-18T11:03:05Z</time>
      </trkpt>
      <trkpt lat="44.93994" lon="4.07955">
        <ele>1182.56</ele>
        <time>2021-07-18T11:03:42Z</time>
      </trkpt>
      <trkpt lat="44.93994" lon="4.07956">
        <ele>1183.52</ele>
        <time>2021-07-18T11:04:20Z</time>
      </trkpt>
      <trkpt lat="44.93994" lon="4.07956">
        <ele>1183.04</ele>
        <time>2021-07-18T11:04:57Z</time>
      </trkpt>
      <trkpt lat="44.93993" lon="4.07956">
        <ele>1182.56</ele>
        <time>2021-07-18T11:05:29Z</time>
      </trkpt>
      <trkpt lat="44.93993" lon="4.07956">
        <ele>1182.08</ele>
        <time>2021-07-18T11:06:01Z</time>
      </trkpt>
      <trkpt lat="44.93994" lon="4.07955">
        <ele>1182.08</ele>
        <time>2021-07-18T11:06:31Z</time>
      </trkpt>
      <trkpt lat="44.93995" lon="4.07955">
        <ele>1182.08</ele>
        <time>2021-07-18T11:06:59Z</time>
      </trkpt>
      <trkpt lat="44.93995" lon="4.07955">
        <ele>1182.08</ele>
        <time>2021-07-18T11:07:24Z</time>
      </trkpt>
      <trkpt lat="44.93995" lon="4.07953">
        <ele>1182.56</ele>
        <time>2021-07-18T11:07:54Z</time>
      </trkpt>
      <trkpt lat="44.93996" lon="4.07954">
        <ele>1182.56</ele>
        <time>2021-07-18T11:08:29Z</time>
      </trkpt>
      <trkpt lat="44.93995" lon="4.07954">
        <ele>1182.56</ele>
        <time>2021-07-18T11:09:03Z</time>
      </trkpt>
      <trkpt lat="44.93995" lon="4.07955">
        <ele>1183.52</ele>
        <time>2021-07-18T11:09:28Z</time>
      </trkpt>
      <trkpt lat="44.93995" lon="4.07955">
        <ele>1184</ele>
        <time>2021-07-18T11:10:04Z</time>
      </trkpt>
      <trkpt lat="44.93995" lon="4.07954">
        <ele>1184</ele>
        <time>2021-07-18T11:10:28Z</time>
      </trkpt>
      <trkpt lat="44.93995" lon="4.07954">
        <ele>1183.52</ele>
        <time>2021-07-18T11:10:58Z</time>
      </trkpt>
      <trkpt lat="44.93994" lon="4.07954">
        <ele>1183.52</ele>
        <time>2021-07-18T11:11:31Z</time>
      </trkpt>
      <trkpt lat="44.93994" lon="4.07955">
        <ele>1183.04</ele>
        <time>2021-07-18T11:12:03Z</time>
      </trkpt>
      <trkpt lat="44.93995" lon="4.07954">
        <ele>1183.04</ele>
        <time>2021-07-18T11:12:31Z</time>
      </trkpt>
      <trkpt lat="44.93995" lon="4.07953">
        <ele>1183.52</ele>
        <time>2021-07-18T11:12:50Z</time>
      </trkpt>
      <trkpt lat="44.93995" lon="4.07952">
        <ele>1184</ele>
        <time>2021-07-18T11:13:14Z</time>
      </trkpt>
      <trkpt lat="44.93996" lon="4.07951">
        <ele>1184.48</ele>
        <time>2021-07-18T11:13:37Z</time>
      </trkpt>
      <trkpt lat="44.93996" lon="4.07951">
        <ele>1184</ele>
        <time>2021-07-18T11:14:01Z</time>
      </trkpt>
      <trkpt lat="44.93995" lon="4.07951">
        <ele>1184</ele>
        <time>2021-07-18T11:14:23Z</time>
      </trkpt>
      <trkpt lat="44.93995" lon="4.07953">
        <ele>1183.52</ele>
        <time>2021-07-18T11:14:48Z</time>
      </trkpt>
      <trkpt lat="44.93994" lon="4.07955">
        <ele>1183.04</ele>
        <time>2021-07-18T11:15:13Z</time>
      </trkpt>
      <trkpt lat="44.93994" lon="4.07955">
        <ele>1183.04</ele>
        <time>2021-07-18T11:15:41Z</time>
      </trkpt>
      <trkpt lat="44.93995" lon="4.07955">
        <ele>1183.04</ele>
        <time>2021-07-18T11:15:52Z</time>
      </trkpt>
      <trkpt lat="44.94004" lon="4.0796">
        <ele>1184.96</ele>
        <time>2021-07-18T11:16:01Z</time>
      </trkpt>
      <trkpt lat="44.94006" lon="4.0796">
        <ele>1186.4</ele>
        <time>2021-07-18T11:16:11Z</time>
      </trkpt>
      <trkpt lat="44.94003" lon="4.07953">
        <ele>1186.4</ele>
        <time>2021-07-18T11:16:17Z</time>
      </trkpt>
      <trkpt lat="44.93999" lon="4.0795">
        <ele>1185.92</ele>
        <time>2021-07-18T11:16:26Z</time>
      </trkpt>
      <trkpt lat="44.94" lon="4.07951">
        <ele>1185.92</ele>
        <time>2021-07-18T11:16:38Z</time>
      </trkpt>
      <trkpt lat="44.93999" lon="4.0795">
        <ele>1186.4</ele>
        <time>2021-07-18T11:16:49Z</time>
      </trkpt>
      <trkpt lat="44.94" lon="4.07951">
        <ele>1186.4</ele>
        <time>2021-07-18T11:16:59Z</time>
      </trkpt>
      <trkpt lat="44.94" lon="4.07952">
        <ele>1186.4</ele>
        <time>2021-07-18T11:17:07Z</time>
      </trkpt>
      <trkpt lat="44.94" lon="4.07951">
        <ele>1185.92</ele>
        <time>2021-07-18T11:17:20Z</time>
      </trkpt>
      <trkpt lat="44.93999" lon="4.07952">
        <ele>1185.44</ele>
        <time>2021-07-18T11:17:34Z</time>
      </trkpt>
      <trkpt lat="44.93998" lon="4.07953">
        <ele>1184.48</ele>
        <time>2021-07-18T11:17:55Z</time>
      </trkpt>
      <trkpt lat="44.93997" lon="4.07953">
        <ele>1184.48</ele>
        <time>2021-07-18T11:18:13Z</time>
      </trkpt>
      <trkpt lat="44.93995" lon="4.07948">
        <ele>1184.96</ele>
        <time>2021-07-18T11:18:26Z</time>
      </trkpt>
      <trkpt lat="44.93988" lon="4.07952">
        <ele>1184.48</ele>
        <time>2021-07-18T11:18:34Z</time>
      </trkpt>
      <trkpt lat="44.93973" lon="4.07966">
        <ele>1184.96</ele>
        <time>2021-07-18T11:18:50Z</time>
      </trkpt>
      <trkpt lat="44.93958" lon="4.07981">
        <ele>1188.3</ele>
      </trkpt>
      <trkpt lat="44.93954" lon="4.07985">
        <ele>1188.5</ele>
      </trkpt>
      <trkpt lat="44.93945" lon="4.07999">
        <ele>1189</ele>
      </trkpt>
      <trkpt lat="44.93935" lon="4.08007">
        <ele>1188.5</ele>
      </trkpt>
      <trkpt lat="44.93928" lon="4.08006">
        <ele>1188.3</ele>
      </trkpt>
      <trkpt lat="44.93928" lon="4.08006">
        <ele>1188.3</ele>
      </trkpt>
      <trkpt lat="44.93925" lon="4.07995">
        <ele>1188.4</ele>
      </trkpt>
      <trkpt lat="44.93922" lon="4.08004">
        <ele>1188.2</ele>
      </trkpt>
      <trkpt lat="44.93919" lon="4.08014">
        <ele>1188</ele>
      </trkpt>
      <trkpt lat="44.93916" lon="4.08023">
        <ele>1188</ele>
      </trkpt>
      <trkpt lat="44.93912" lon="4.08025">
        <ele>1188</ele>
      </trkpt>
      <trkpt lat="44.93916" lon="4.08023">
        <ele>1188</ele>
      </trkpt>
      <trkpt lat="44.93919" lon="4.08014">
        <ele>1188</ele>
      </trkpt>
      <trkpt lat="44.93911" lon="4.0801">
        <ele>1188</ele>
      </trkpt>
      <trkpt lat="44.93904" lon="4.08006">
        <ele>1188</ele>
      </trkpt>
      <trkpt lat="44.93896" lon="4.08001">
        <ele>1188</ele>
      </trkpt>
      <trkpt lat="44.93893" lon="4.0801">
        <ele>1188</ele>
      </trkpt>
      <trkpt lat="44.93896" lon="4.08001">
        <ele>1188</ele>
      </trkpt>
      <trkpt lat="44.93899" lon="4.0799">
        <ele>1188.4</ele>
      </trkpt>
      <trkpt lat="44.93899" lon="4.0799">
        <ele>1188.4</ele>
      </trkpt>
      <trkpt lat="44.93902" lon="4.0798">
        <ele>1188.7</ele>
      </trkpt>
      <trkpt lat="44.9391" lon="4.07984">
        <ele>1188.6</ele>
      </trkpt>
      <trkpt lat="44.93918" lon="4.07989">
        <ele>1188.4</ele>
      </trkpt>
      <trkpt lat="44.93919" lon="4.07983">
        <ele>1188.6</ele>
      </trkpt>
      <trkpt lat="44.93921" lon="4.07978">
        <ele>1188.7</ele>
      </trkpt>
      <trkpt lat="44.93921" lon="4.07978">
        <ele>1188.7</ele>
      </trkpt>
      <trkpt lat="44.93921" lon="4.07978">
        <ele>1188.7</ele>
      </trkpt>
      <trkpt lat="44.93897" lon="4.07939">
        <ele>1188.7</ele>
      </trkpt>
      <trkpt lat="44.9384" lon="4.07946">
        <ele>1189</ele>
      </trkpt>
      <trkpt lat="44.93799" lon="4.07931">
        <ele>1188.9</ele>
      </trkpt>
      <trkpt lat="44.93762" lon="4.07886">
        <ele>1189</ele>
      </trkpt>
      <trkpt lat="44.93761" lon="4.07888">
        <ele>1189</ele>
      </trkpt>
      <trkpt lat="44.93746" lon="4.07978">
        <ele>1188.7</ele>
      </trkpt>
      <trkpt lat="44.93738" lon="4.0806">
        <ele>1188.4</ele>
      </trkpt>
      <trkpt lat="44.93736" lon="4.08185">
        <ele>1189.3</ele>
      </trkpt>
      <trkpt lat="44.93736" lon="4.08186">
        <ele>1189.3</ele>
      </trkpt>
      <trkpt lat="44.93736" lon="4.08185">
        <ele>1189.3</ele>
      </trkpt>
      <trkpt lat="44.93701" lon="4.08207">
        <ele>1189.1</ele>
      </trkpt>
      <trkpt lat="44.937" lon="4.08207">
        <ele>1189.1</ele>
      </trkpt>
      <trkpt lat="44.93694" lon="4.08207">
        <ele>1198.9</ele>
        <time>2021-07-18T11:30:52Z</time>
      </trkpt>
      <trkpt lat="44.93691" lon="4.08209">
        <ele>1198.42</ele>
        <time>2021-07-18T11:30:56Z</time>
      </trkpt>
      <trkpt lat="44.93687" lon="4.08211">
        <ele>1197.94</ele>
        <time>2021-07-18T11:31:01Z</time>
      </trkpt>
      <trkpt lat="44.93681" lon="4.08208">
        <ele>1197.46</ele>
        <time>2021-07-18T11:31:07Z</time>
      </trkpt>
      <trkpt lat="44.93676" lon="4.08209">
        <ele>1197.46</ele>
        <time>2021-07-18T11:31:11Z</time>
      </trkpt>
      <trkpt lat="44.93651" lon="4.08215">
        <ele>1196.98</ele>
        <time>2021-07-18T11:31:28Z</time>
      </trkpt>
      <trkpt lat="44.9363" lon="4.08224">
        <ele>1197.94</ele>
        <time>2021-07-18T11:31:44Z</time>
      </trkpt>
      <trkpt lat="44.93609" lon="4.08232">
        <ele>1197.46</ele>
        <time>2021-07-18T11:32:00Z</time>
      </trkpt>
      <trkpt lat="44.93586" lon="4.08238">
        <ele>1197.46</ele>
        <time>2021-07-18T11:32:18Z</time>
      </trkpt>
      <trkpt lat="44.9357" lon="4.08253">
        <ele>1200.82</ele>
        <time>2021-07-18T11:32:34Z</time>
      </trkpt>
      <trkpt lat="44.93567" lon="4.08268">
        <ele>1204.19</ele>
        <time>2021-07-18T11:32:43Z</time>
      </trkpt>
      <trkpt lat="44.93562" lon="4.08297">
        <ele>1208.51</ele>
        <time>2021-07-18T11:33:02Z</time>
      </trkpt>
      <trkpt lat="44.9356" lon="4.083">
        <ele>1209</ele>
        <time>2021-07-18T11:33:05Z</time>
      </trkpt>
      <trkpt lat="44.93551" lon="4.08319">
        <ele>1209.96</ele>
        <time>2021-07-18T11:33:21Z</time>
      </trkpt>
      <trkpt lat="44.93549" lon="4.08319">
        <ele>1209.48</ele>
        <time>2021-07-18T11:33:22Z</time>
      </trkpt>
      <trkpt lat="44.93535" lon="4.08331">
        <ele>1200.82</ele>
        <time>2021-07-18T11:33:36Z</time>
      </trkpt>
      <trkpt lat="44.93536" lon="4.08331">
        <ele>1197.94</ele>
        <time>2021-07-18T11:33:52Z</time>
      </trkpt>
      <trkpt lat="44.93536" lon="4.08331">
        <ele>1196.98</ele>
        <time>2021-07-18T11:34:10Z</time>
      </trkpt>
      <trkpt lat="44.93535" lon="4.08332">
        <ele>1196.5</ele>
        <time>2021-07-18T11:34:27Z</time>
      </trkpt>
      <trkpt lat="44.93531" lon="4.08333">
        <ele>1195.54</ele>
        <time>2021-07-18T11:34:49Z</time>
      </trkpt>
      <trkpt lat="44.93529" lon="4.08333">
        <ele>1194.58</ele>
        <time>2021-07-18T11:35:05Z</time>
      </trkpt>
      <trkpt lat="44.93532" lon="4.08332">
        <ele>1194.09</ele>
        <time>2021-07-18T11:35:15Z</time>
      </trkpt>
      <trkpt lat="44.93534" lon="4.08332">
        <ele>1193.61</ele>
        <time>2021-07-18T11:35:27Z</time>
      </trkpt>
      <trkpt lat="44.93535" lon="4.08333">
        <ele>1193.13</ele>
        <time>2021-07-18T11:35:44Z</time>
      </trkpt>
      <trkpt lat="44.93539" lon="4.08342">
        <ele>1193.61</ele>
        <time>2021-07-18T11:35:55Z</time>
      </trkpt>
      <trkpt lat="44.93546" lon="4.08357">
        <ele>1193.61</ele>
        <time>2021-07-18T11:36:06Z</time>
      </trkpt>
      <trkpt lat="44.93548" lon="4.08367">
        <ele>1194.58</ele>
        <time>2021-07-18T11:36:13Z</time>
      </trkpt>
      <trkpt lat="44.93551" lon="4.08377">
        <ele>1195.06</ele>
        <time>2021-07-18T11:36:19Z</time>
      </trkpt>
      <trkpt lat="44.93557" lon="4.08391">
        <ele>1196.02</ele>
        <time>2021-07-18T11:36:28Z</time>
      </trkpt>
      <trkpt lat="44.93571" lon="4.08409">
        <ele>1197.94</ele>
        <time>2021-07-18T11:36:44Z</time>
      </trkpt>
      <trkpt lat="44.93582" lon="4.08425">
        <ele>1197.46</ele>
        <time>2021-07-18T11:36:57Z</time>
      </trkpt>
      <trkpt lat="44.93591" lon="4.08458">
        <ele>1199.86</ele>
        <time>2021-07-18T11:37:14Z</time>
      </trkpt>
      <trkpt lat="44.93604" lon="4.08483">
        <ele>1199.38</ele>
        <time>2021-07-18T11:37:31Z</time>
      </trkpt>
      <trkpt lat="44.93617" lon="4.08508">
        <ele>1197.94</ele>
        <time>2021-07-18T11:37:47Z</time>
      </trkpt>
      <trkpt lat="44.93634" lon="4.08527">
        <ele>1199.38</ele>
        <time>2021-07-18T11:38:04Z</time>
      </trkpt>
      <trkpt lat="44.93635" lon="4.08528">
        <ele>1199.38</ele>
        <time>2021-07-18T11:38:05Z</time>
      </trkpt>
      <trkpt lat="44.93637" lon="4.08534">
        <ele>1200.82</ele>
        <time>2021-07-18T11:38:10Z</time>
      </trkpt>
      <trkpt lat="44.93635" lon="4.08539">
        <ele>1202.27</ele>
        <time>2021-07-18T11:38:15Z</time>
      </trkpt>
      <trkpt lat="44.93631" lon="4.08545">
        <ele>1205.63</ele>
        <time>2021-07-18T11:38:22Z</time>
      </trkpt>
      <trkpt lat="44.93614" lon="4.08561">
        <ele>1209</ele>
        <time>2021-07-18T11:38:40Z</time>
      </trkpt>
      <trkpt lat="44.93602" lon="4.08585">
        <ele>1210.92</ele>
        <time>2021-07-18T11:38:55Z</time>
      </trkpt>
      <trkpt lat="44.93599" lon="4.08602">
        <ele>1211.4</ele>
        <time>2021-07-18T11:39:07Z</time>
      </trkpt>
      <trkpt lat="44.93592" lon="4.08634">
        <ele>1210.92</ele>
        <time>2021-07-18T11:39:23Z</time>
      </trkpt>
      <trkpt lat="44.93589" lon="4.08668">
        <ele>1207.07</ele>
        <time>2021-07-18T11:39:40Z</time>
      </trkpt>
      <trkpt lat="44.93586" lon="4.08687">
        <ele>1209.48</ele>
        <time>2021-07-18T11:39:53Z</time>
      </trkpt>
      <trkpt lat="44.93582" lon="4.08716">
        <ele>1210.44</ele>
        <time>2021-07-18T11:40:10Z</time>
      </trkpt>
      <trkpt lat="44.93582" lon="4.08722">
        <ele>1210.92</ele>
        <time>2021-07-18T11:40:14Z</time>
      </trkpt>
      <trkpt lat="44.9358" lon="4.08745">
        <ele>1213.8</ele>
        <time>2021-07-18T11:40:28Z</time>
      </trkpt>
      <trkpt lat="44.9358" lon="4.08773">
        <ele>1212.36</ele>
        <time>2021-07-18T11:40:45Z</time>
      </trkpt>
      <trkpt lat="44.93585" lon="4.08809">
        <ele>1209</ele>
        <time>2021-07-18T11:41:00Z</time>
      </trkpt>
      <trkpt lat="44.9359" lon="4.08848">
        <ele>1204.67</ele>
        <time>2021-07-18T11:41:20Z</time>
      </trkpt>
      <trkpt lat="44.93593" lon="4.08883">
        <ele>1203.23</ele>
        <time>2021-07-18T11:41:38Z</time>
      </trkpt>
      <trkpt lat="44.93596" lon="4.08916">
        <ele>1201.79</ele>
        <time>2021-07-18T11:41:57Z</time>
      </trkpt>
      <trkpt lat="44.93605" lon="4.08947">
        <ele>1202.75</ele>
        <time>2021-07-18T11:42:15Z</time>
      </trkpt>
      <trkpt lat="44.93611" lon="4.08978">
        <ele>1203.23</ele>
        <time>2021-07-18T11:42:32Z</time>
      </trkpt>
      <trkpt lat="44.93615" lon="4.09006">
        <ele>1202.27</ele>
        <time>2021-07-18T11:42:48Z</time>
      </trkpt>
      <trkpt lat="44.93619" lon="4.09045">
        <ele>1201.3</ele>
        <time>2021-07-18T11:43:08Z</time>
      </trkpt>
      <trkpt lat="44.93624" lon="4.09052">
        <ele>1202.27</ele>
        <time>2021-07-18T11:43:17Z</time>
      </trkpt>
      <trkpt lat="44.93627" lon="4.09058">
        <ele>1202.75</ele>
        <time>2021-07-18T11:43:24Z</time>
      </trkpt>
      <trkpt lat="44.93637" lon="4.09068">
        <ele>1203.71</ele>
        <time>2021-07-18T11:43:37Z</time>
      </trkpt>
      <trkpt lat="44.93657" lon="4.09071">
        <ele>1207.07</ele>
        <time>2021-07-18T11:43:54Z</time>
      </trkpt>
      <trkpt lat="44.93665" lon="4.09073">
        <ele>1209</ele>
        <time>2021-07-18T11:44:02Z</time>
      </trkpt>
      <trkpt lat="44.93675" lon="4.09096">
        <ele>1210.44</ele>
        <time>2021-07-18T11:44:19Z</time>
      </trkpt>
      <trkpt lat="44.93677" lon="4.09096">
        <ele>1210.44</ele>
        <time>2021-07-18T11:44:21Z</time>
      </trkpt>
      <trkpt lat="44.93682" lon="4.09094">
        <ele>1210.44</ele>
        <time>2021-07-18T11:44:26Z</time>
      </trkpt>
      <trkpt lat="44.93698" lon="4.09081">
        <ele>1211.4</ele>
        <time>2021-07-18T11:44:45Z</time>
      </trkpt>
      <trkpt lat="44.9371" lon="4.09074">
        <ele>1213.32</ele>
        <time>2021-07-18T11:44:57Z</time>
      </trkpt>
      <trkpt lat="44.93727" lon="4.0907">
        <ele>1219.57</ele>
        <time>2021-07-18T11:45:14Z</time>
      </trkpt>
      <trkpt lat="44.93737" lon="4.09071">
        <ele>1223.42</ele>
        <time>2021-07-18T11:45:23Z</time>
      </trkpt>
      <trkpt lat="44.93755" lon="4.09073">
        <ele>1228.7</ele>
        <time>2021-07-18T11:45:40Z</time>
      </trkpt>
      <trkpt lat="44.9377" lon="4.0907">
        <ele>1234.47</ele>
        <time>2021-07-18T11:45:54Z</time>
      </trkpt>
      <trkpt lat="44.93776" lon="4.09069">
        <ele>1235.43</ele>
        <time>2021-07-18T11:46:11Z</time>
      </trkpt>
      <trkpt lat="44.93783" lon="4.09068">
        <ele>1236.39</ele>
        <time>2021-07-18T11:46:30Z</time>
      </trkpt>
      <trkpt lat="44.93795" lon="4.09069">
        <ele>1236.87</ele>
        <time>2021-07-18T11:46:44Z</time>
      </trkpt>
      <trkpt lat="44.93797" lon="4.09069">
        <ele>1236.87</ele>
        <time>2021-07-18T11:46:45Z</time>
      </trkpt>
      <trkpt lat="44.93822" lon="4.09068">
        <ele>1229.66</ele>
        <time>2021-07-18T11:47:00Z</time>
      </trkpt>
      <trkpt lat="44.93835" lon="4.09068">
        <ele>1227.26</ele>
        <time>2021-07-18T11:47:13Z</time>
      </trkpt>
      <trkpt lat="44.93852" lon="4.09068">
        <ele>1219.57</ele>
        <time>2021-07-18T11:47:30Z</time>
      </trkpt>
      <trkpt lat="44.93869" lon="4.09066">
        <ele>1215.24</ele>
        <time>2021-07-18T11:47:42Z</time>
      </trkpt>
      <trkpt lat="44.9389" lon="4.09066">
        <ele>1212.84</ele>
        <time>2021-07-18T11:47:58Z</time>
      </trkpt>
      <trkpt lat="44.93903" lon="4.09067">
        <ele>1209.48</ele>
        <time>2021-07-18T11:48:10Z</time>
      </trkpt>
      <trkpt lat="44.93921" lon="4.09068">
        <ele>1209</ele>
        <time>2021-07-18T11:48:27Z</time>
      </trkpt>
      <trkpt lat="44.93946" lon="4.09067">
        <ele>1209</ele>
        <time>2021-07-18T11:48:44Z</time>
      </trkpt>
      <trkpt lat="44.93957" lon="4.09069">
        <ele>1208.51</ele>
        <time>2021-07-18T11:48:59Z</time>
      </trkpt>
      <trkpt lat="44.93975" lon="4.09062">
        <ele>1209.96</ele>
        <time>2021-07-18T11:49:14Z</time>
      </trkpt>
      <trkpt lat="44.93997" lon="4.09056">
        <ele>1211.4</ele>
        <time>2021-07-18T11:49:31Z</time>
      </trkpt>
      <trkpt lat="44.94019" lon="4.09062">
        <ele>1212.84</ele>
        <time>2021-07-18T11:49:43Z</time>
      </trkpt>
      <trkpt lat="44.94024" lon="4.09065">
        <ele>1213.8</ele>
        <time>2021-07-18T11:49:46Z</time>
      </trkpt>
      <trkpt lat="44.94044" lon="4.0906">
        <ele>1219.09</ele>
        <time>2021-07-18T11:50:01Z</time>
      </trkpt>
      <trkpt lat="44.94046" lon="4.09056">
        <ele>1219.57</ele>
        <time>2021-07-18T11:50:11Z</time>
      </trkpt>
      <trkpt lat="44.94061" lon="4.09059">
        <ele>1223.9</ele>
        <time>2021-07-18T11:50:23Z</time>
      </trkpt>
      <trkpt lat="44.94089" lon="4.09057">
        <ele>1219.57</ele>
        <time>2021-07-18T11:50:39Z</time>
      </trkpt>
      <trkpt lat="44.94105" lon="4.09061">
        <ele>1218.13</ele>
        <time>2021-07-18T11:50:51Z</time>
      </trkpt>
      <trkpt lat="44.94115" lon="4.09059">
        <ele>1220.05</ele>
        <time>2021-07-18T11:51:00Z</time>
      </trkpt>
      <trkpt lat="44.9412" lon="4.09061">
        <ele>1221.01</ele>
        <time>2021-07-18T11:51:04Z</time>
      </trkpt>
      <trkpt lat="44.94135" lon="4.09062">
        <ele>1227.74</ele>
        <time>2021-07-18T11:51:19Z</time>
      </trkpt>
      <trkpt lat="44.94141" lon="4.09065">
        <ele>1232.07</ele>
        <time>2021-07-18T11:51:26Z</time>
      </trkpt>
      <trkpt lat="44.94163" lon="4.09073">
        <ele>1236.87</ele>
        <time>2021-07-18T11:51:45Z</time>
      </trkpt>
      <trkpt lat="44.94182" lon="4.09083">
        <ele>1235.91</ele>
        <time>2021-07-18T11:51:59Z</time>
      </trkpt>
      <trkpt lat="44.94197" lon="4.09085">
        <ele>1236.87</ele>
        <time>2021-07-18T11:52:13Z</time>
      </trkpt>
      <trkpt lat="44.94225" lon="4.0909">
        <ele>1236.39</ele>
        <time>2021-07-18T11:52:29Z</time>
      </trkpt>
      <trkpt lat="44.94243" lon="4.09073">
        <ele>1233.03</ele>
        <time>2021-07-18T11:52:43Z</time>
      </trkpt>
      <trkpt lat="44.94241" lon="4.0907">
        <ele>1229.18</ele>
        <time>2021-07-18T11:52:54Z</time>
      </trkpt>
      <trkpt lat="44.94241" lon="4.09069">
        <ele>1227.74</ele>
        <time>2021-07-18T11:53:06Z</time>
      </trkpt>
      <trkpt lat="44.94242" lon="4.09069">
        <ele>1225.82</ele>
        <time>2021-07-18T11:53:38Z</time>
      </trkpt>
      <trkpt lat="44.94242" lon="4.09068">
        <ele>1223.9</ele>
        <time>2021-07-18T11:54:01Z</time>
      </trkpt>
      <trkpt lat="44.94242" lon="4.09066">
        <ele>1223.42</ele>
        <time>2021-07-18T11:54:14Z</time>
      </trkpt>
      <trkpt lat="44.94244" lon="4.09067">
        <ele>1222.93</ele>
        <time>2021-07-18T11:54:17Z</time>
      </trkpt>
      <trkpt lat="44.94263" lon="4.09046">
        <ele>1221.97</ele>
        <time>2021-07-18T11:54:27Z</time>
      </trkpt>
      <trkpt lat="44.94289" lon="4.09018">
        <ele>1220.05</ele>
        <time>2021-07-18T11:54:40Z</time>
      </trkpt>
      <trkpt lat="44.94309" lon="4.08984">
        <ele>1217.65</ele>
        <time>2021-07-18T11:54:53Z</time>
      </trkpt>
      <trkpt lat="44.94334" lon="4.08956">
        <ele>1218.13</ele>
        <time>2021-07-18T11:55:05Z</time>
      </trkpt>
      <trkpt lat="44.94356" lon="4.08925">
        <ele>1217.65</ele>
        <time>2021-07-18T11:55:17Z</time>
      </trkpt>
      <trkpt lat="44.94371" lon="4.08899">
        <ele>1214.28</ele>
        <time>2021-07-18T11:55:27Z</time>
      </trkpt>
      <trkpt lat="44.94388" lon="4.0887">
        <ele>1207.55</ele>
        <time>2021-07-18T11:55:41Z</time>
      </trkpt>
      <trkpt lat="44.94396" lon="4.08858">
        <ele>1203.71</ele>
        <time>2021-07-18T11:55:47Z</time>
      </trkpt>
      <trkpt lat="44.94419" lon="4.08854">
        <ele>1196.02</ele>
        <time>2021-07-18T11:56:02Z</time>
      </trkpt>
      <trkpt lat="44.94431" lon="4.08879">
        <ele>1194.09</ele>
        <time>2021-07-18T11:56:15Z</time>
      </trkpt>
      <trkpt lat="44.94436" lon="4.08889">
        <ele>1195.54</ele>
        <time>2021-07-18T11:56:24Z</time>
      </trkpt>
      <trkpt lat="44.94443" lon="4.08917">
        <ele>1202.27</ele>
        <time>2021-07-18T11:56:41Z</time>
      </trkpt>
      <trkpt lat="44.94451" lon="4.08943">
        <ele>1208.03</ele>
        <time>2021-07-18T11:56:57Z</time>
      </trkpt>
      <trkpt lat="44.94459" lon="4.08968">
        <ele>1217.17</ele>
        <time>2021-07-18T11:57:13Z</time>
      </trkpt>
      <trkpt lat="44.94466" lon="4.08987">
        <ele>1223.42</ele>
        <time>2021-07-18T11:57:28Z</time>
      </trkpt>
      <trkpt lat="44.9447" lon="4.08991">
        <ele>1222.93</ele>
        <time>2021-07-18T11:57:32Z</time>
      </trkpt>
      <trkpt lat="44.94481" lon="4.08994">
        <ele>1221.49</ele>
        <time>2021-07-18T11:57:45Z</time>
      </trkpt>
      <trkpt lat="44.94496" lon="4.08989">
        <ele>1219.57</ele>
        <time>2021-07-18T11:58:01Z</time>
      </trkpt>
      <trkpt lat="44.9451" lon="4.08982">
        <ele>1212.84</ele>
        <time>2021-07-18T11:58:16Z</time>
      </trkpt>
      <trkpt lat="44.94527" lon="4.08974">
        <ele>1204.67</ele>
        <time>2021-07-18T11:58:30Z</time>
      </trkpt>
      <trkpt lat="44.94537" lon="4.08971">
        <ele>1198.42</ele>
        <time>2021-07-18T11:58:36Z</time>
      </trkpt>
      <trkpt lat="44.9456" lon="4.08953">
        <ele>1181.12</ele>
        <time>2021-07-18T11:58:51Z</time>
      </trkpt>
      <trkpt lat="44.94565" lon="4.08947">
        <ele>1178.71</ele>
        <time>2021-07-18T11:58:56Z</time>
      </trkpt>
      <trkpt lat="44.94569" lon="4.08939">
        <ele>1177.27</ele>
        <time>2021-07-18T11:59:02Z</time>
      </trkpt>
      <trkpt lat="44.94573" lon="4.08932">
        <ele>1175.35</ele>
        <time>2021-07-18T11:59:06Z</time>
      </trkpt>
      <trkpt lat="44.94582" lon="4.08913">
        <ele>1171.5</ele>
        <time>2021-07-18T11:59:19Z</time>
      </trkpt>
      <trkpt lat="44.94585" lon="4.08905">
        <ele>1170.54</ele>
        <time>2021-07-18T11:59:23Z</time>
      </trkpt>
      <trkpt lat="44.94612" lon="4.08887">
        <ele>1168.62</ele>
        <time>2021-07-18T11:59:42Z</time>
      </trkpt>
      <trkpt lat="44.94629" lon="4.08876">
        <ele>1165.74</ele>
        <time>2021-07-18T11:59:58Z</time>
      </trkpt>
      <trkpt lat="44.94645" lon="4.08869">
        <ele>1160.93</ele>
        <time>2021-07-18T12:00:12Z</time>
      </trkpt>
      <trkpt lat="44.94659" lon="4.08864">
        <ele>1157.56</ele>
        <time>2021-07-18T12:00:30Z</time>
      </trkpt>
      <trkpt lat="44.94669" lon="4.08861">
        <ele>1154.2</ele>
        <time>2021-07-18T12:00:44Z</time>
      </trkpt>
      <trkpt lat="44.94673" lon="4.0886">
        <ele>1151.8</ele>
        <time>2021-07-18T12:00:55Z</time>
      </trkpt>
      <trkpt lat="44.94682" lon="4.08856">
        <ele>1148.43</ele>
        <time>2021-07-18T12:01:09Z</time>
      </trkpt>
      <trkpt lat="44.94692" lon="4.08847">
        <ele>1145.07</ele>
        <time>2021-07-18T12:01:22Z</time>
      </trkpt>
      <trkpt lat="44.94704" lon="4.08841">
        <ele>1142.66</ele>
        <time>2021-07-18T12:01:38Z</time>
      </trkpt>
      <trkpt lat="44.94721" lon="4.08832">
        <ele>1139.3</ele>
        <time>2021-07-18T12:01:53Z</time>
      </trkpt>
      <trkpt lat="44.94729" lon="4.08838">
        <ele>1135.45</ele>
        <time>2021-07-18T12:02:05Z</time>
      </trkpt>
      <trkpt lat="44.94728" lon="4.08858">
        <ele>1133.53</ele>
        <time>2021-07-18T12:02:20Z</time>
      </trkpt>
      <trkpt lat="44.94729" lon="4.08873">
        <ele>1133.53</ele>
        <time>2021-07-18T12:02:36Z</time>
      </trkpt>
      <trkpt lat="44.94728" lon="4.08895">
        <ele>1134.01</ele>
        <time>2021-07-18T12:02:52Z</time>
      </trkpt>
      <trkpt lat="44.94724" lon="4.08922">
        <ele>1133.05</ele>
        <time>2021-07-18T12:03:08Z</time>
      </trkpt>
      <trkpt lat="44.94721" lon="4.08944">
        <ele>1132.09</ele>
        <time>2021-07-18T12:03:23Z</time>
      </trkpt>
      <trkpt lat="44.94725" lon="4.0897">
        <ele>1131.61</ele>
        <time>2021-07-18T12:03:40Z</time>
      </trkpt>
      <trkpt lat="44.94732" lon="4.08996">
        <ele>1130.65</ele>
        <time>2021-07-18T12:03:55Z</time>
      </trkpt>
      <trkpt lat="44.9474" lon="4.09034">
        <ele>1133.05</ele>
        <time>2021-07-18T12:04:14Z</time>
      </trkpt>
      <trkpt lat="44.94736" lon="4.09043">
        <ele>1130.17</ele>
        <time>2021-07-18T12:04:27Z</time>
      </trkpt>
      <trkpt lat="44.94736" lon="4.09044">
        <ele>1130.17</ele>
        <time>2021-07-18T12:04:34Z</time>
      </trkpt>
      <trkpt lat="44.94745" lon="4.09063">
        <ele>1131.13</ele>
        <time>2021-07-18T12:04:45Z</time>
      </trkpt>
      <trkpt lat="44.94751" lon="4.09104">
        <ele>1131.13</ele>
        <time>2021-07-18T12:05:00Z</time>
      </trkpt>
      <trkpt lat="44.94753" lon="4.09117">
        <ele>1130.65</ele>
        <time>2021-07-18T12:05:05Z</time>
      </trkpt>
      <trkpt lat="44.94756" lon="4.09123">
        <ele>1129.21</ele>
        <time>2021-07-18T12:05:10Z</time>
      </trkpt>
      <trkpt lat="44.94757" lon="4.0913">
        <ele>1127.76</ele>
        <time>2021-07-18T12:05:14Z</time>
      </trkpt>
      <trkpt lat="44.94759" lon="4.09132">
        <ele>1127.28</ele>
        <time>2021-07-18T12:05:16Z</time>
      </trkpt>
      <trkpt lat="44.94762" lon="4.09137">
        <ele>1126.32</ele>
        <time>2021-07-18T12:05:19Z</time>
      </trkpt>
      <trkpt lat="44.9478" lon="4.0915">
        <ele>1125.36</ele>
        <time>2021-07-18T12:05:35Z</time>
      </trkpt>
      <trkpt lat="44.94788" lon="4.09152">
        <ele>1125.36</ele>
        <time>2021-07-18T12:05:44Z</time>
      </trkpt>
      <trkpt lat="44.948" lon="4.09148">
        <ele>1123.92</ele>
        <time>2021-07-18T12:05:54Z</time>
      </trkpt>
      <trkpt lat="44.94814" lon="4.09139">
        <ele>1123.44</ele>
        <time>2021-07-18T12:06:09Z</time>
      </trkpt>
      <trkpt lat="44.94826" lon="4.09126">
        <ele>1123.44</ele>
        <time>2021-07-18T12:06:22Z</time>
      </trkpt>
      <trkpt lat="44.94829" lon="4.09123">
        <ele>1123.44</ele>
        <time>2021-07-18T12:06:25Z</time>
      </trkpt>
      <trkpt lat="44.94843" lon="4.09108">
        <ele>1123.92</ele>
        <time>2021-07-18T12:06:38Z</time>
      </trkpt>
      <trkpt lat="44.94857" lon="4.0909">
        <ele>1123.44</ele>
        <time>2021-07-18T12:06:53Z</time>
      </trkpt>
      <trkpt lat="44.94875" lon="4.09067">
        <ele>1122</ele>
        <time>2021-07-18T12:07:11Z</time>
      </trkpt>
      <trkpt lat="44.94892" lon="4.09042">
        <ele>1127.28</ele>
        <time>2021-07-18T12:07:27Z</time>
      </trkpt>
      <trkpt lat="44.949" lon="4.09028">
        <ele>1128.73</ele>
        <time>2021-07-18T12:07:37Z</time>
      </trkpt>
      <trkpt lat="44.94914" lon="4.09002">
        <ele>1129.21</ele>
        <time>2021-07-18T12:07:55Z</time>
      </trkpt>
      <trkpt lat="44.94928" lon="4.08978">
        <ele>1130.65</ele>
        <time>2021-07-18T12:08:13Z</time>
      </trkpt>
      <trkpt lat="44.94941" lon="4.08956">
        <ele>1131.61</ele>
        <time>2021-07-18T12:08:29Z</time>
      </trkpt>
      <trkpt lat="44.94952" lon="4.08934">
        <ele>1131.61</ele>
        <time>2021-07-18T12:08:45Z</time>
      </trkpt>
      <trkpt lat="44.94963" lon="4.08908">
        <ele>1134.01</ele>
        <time>2021-07-18T12:09:01Z</time>
      </trkpt>
      <trkpt lat="44.94977" lon="4.0888">
        <ele>1136.42</ele>
        <time>2021-07-18T12:09:20Z</time>
      </trkpt>
      <trkpt lat="44.94987" lon="4.08851">
        <ele>1137.86</ele>
        <time>2021-07-18T12:09:39Z</time>
      </trkpt>
      <trkpt lat="44.9499" lon="4.08829">
        <ele>1137.86</ele>
        <time>2021-07-18T12:09:53Z</time>
      </trkpt>
      <trkpt lat="44.94996" lon="4.08815">
        <ele>1139.3</ele>
        <time>2021-07-18T12:10:01Z</time>
      </trkpt>
      <trkpt lat="44.95017" lon="4.08798">
        <ele>1141.7</ele>
        <time>2021-07-18T12:10:20Z</time>
      </trkpt>
      <trkpt lat="44.95031" lon="4.08786">
        <ele>1143.63</ele>
        <time>2021-07-18T12:10:34Z</time>
      </trkpt>
      <trkpt lat="44.95042" lon="4.08773">
        <ele>1144.11</ele>
        <time>2021-07-18T12:10:48Z</time>
      </trkpt>
      <trkpt lat="44.95048" lon="4.08769">
        <ele>1145.55</ele>
        <time>2021-07-18T12:11:01Z</time>
      </trkpt>
      <trkpt lat="44.95048" lon="4.0877">
        <ele>1147.47</ele>
        <time>2021-07-18T12:11:26Z</time>
      </trkpt>
      <trkpt lat="44.95047" lon="4.0877">
        <ele>1148.91</ele>
        <time>2021-07-18T12:11:54Z</time>
      </trkpt>
      <trkpt lat="44.95047" lon="4.08769">
        <ele>1149.87</ele>
        <time>2021-07-18T12:12:27Z</time>
      </trkpt>
      <trkpt lat="44.95046" lon="4.0877">
        <ele>1149.87</ele>
        <time>2021-07-18T12:12:43Z</time>
      </trkpt>
      <trkpt lat="44.95045" lon="4.08781">
        <ele>1149.87</ele>
        <time>2021-07-18T12:12:55Z</time>
      </trkpt>
      <trkpt lat="44.95039" lon="4.08809">
        <ele>1151.32</ele>
        <time>2021-07-18T12:13:13Z</time>
      </trkpt>
      <trkpt lat="44.95036" lon="4.08835">
        <ele>1152.28</ele>
        <time>2021-07-18T12:13:30Z</time>
      </trkpt>
      <trkpt lat="44.95033" lon="4.0886">
        <ele>1153.72</ele>
        <time>2021-07-18T12:13:47Z</time>
      </trkpt>
      <trkpt lat="44.95028" lon="4.0889">
        <ele>1154.68</ele>
        <time>2021-07-18T12:14:07Z</time>
      </trkpt>
      <trkpt lat="44.95022" lon="4.08915">
        <ele>1156.6</ele>
        <time>2021-07-18T12:14:23Z</time>
      </trkpt>
      <trkpt lat="44.95016" lon="4.08942">
        <ele>1158.53</ele>
        <time>2021-07-18T12:14:40Z</time>
      </trkpt>
      <trkpt lat="44.95009" lon="4.08975">
        <ele>1161.41</ele>
        <time>2021-07-18T12:15:00Z</time>
      </trkpt>
      <trkpt lat="44.95005" lon="4.09005">
        <ele>1162.85</ele>
        <time>2021-07-18T12:15:17Z</time>
      </trkpt>
      <trkpt lat="44.95009" lon="4.0901">
        <ele>1162.85</ele>
        <time>2021-07-18T12:15:22Z</time>
      </trkpt>
      <trkpt lat="44.9501" lon="4.09021">
        <ele>1161.89</ele>
        <time>2021-07-18T12:15:28Z</time>
      </trkpt>
      <trkpt lat="44.95011" lon="4.0903">
        <ele>1162.85</ele>
        <time>2021-07-18T12:15:34Z</time>
      </trkpt>
      <trkpt lat="44.95015" lon="4.09027">
        <ele>1162.85</ele>
        <time>2021-07-18T12:15:38Z</time>
      </trkpt>
      <trkpt lat="44.95022" lon="4.09003">
        <ele>1161.89</ele>
        <time>2021-07-18T12:15:54Z</time>
      </trkpt>
      <trkpt lat="44.95031" lon="4.08987">
        <ele>1163.33</ele>
        <time>2021-07-18T12:16:08Z</time>
      </trkpt>
      <trkpt lat="44.95046" lon="4.08972">
        <ele>1165.26</ele>
        <time>2021-07-18T12:16:25Z</time>
      </trkpt>
      <trkpt lat="44.95049" lon="4.0897">
        <ele>1165.74</ele>
        <time>2021-07-18T12:16:28Z</time>
      </trkpt>
      <trkpt lat="44.95068" lon="4.08962">
        <ele>1170.06</ele>
        <time>2021-07-18T12:16:45Z</time>
      </trkpt>
      <trkpt lat="44.95085" lon="4.08958">
        <ele>1173.43</ele>
        <time>2021-07-18T12:17:01Z</time>
      </trkpt>
      <trkpt lat="44.95104" lon="4.08956">
        <ele>1174.39</ele>
        <time>2021-07-18T12:17:17Z</time>
      </trkpt>
      <trkpt lat="44.95126" lon="4.08954">
        <ele>1174.87</ele>
        <time>2021-07-18T12:17:35Z</time>
      </trkpt>
      <trkpt lat="44.95135" lon="4.08949">
        <ele>1174.87</ele>
        <time>2021-07-18T12:17:42Z</time>
      </trkpt>
      <trkpt lat="44.95156" lon="4.08953">
        <ele>1176.79</ele>
        <time>2021-07-18T12:17:59Z</time>
      </trkpt>
      <trkpt lat="44.95178" lon="4.08953">
        <ele>1176.31</ele>
        <time>2021-07-18T12:18:18Z</time>
      </trkpt>
      <trkpt lat="44.95199" lon="4.08949">
        <ele>1176.31</ele>
        <time>2021-07-18T12:18:35Z</time>
      </trkpt>
      <trkpt lat="44.95216" lon="4.08935">
        <ele>1177.75</ele>
        <time>2021-07-18T12:18:52Z</time>
      </trkpt>
      <trkpt lat="44.95233" lon="4.08916">
        <ele>1177.27</ele>
        <time>2021-07-18T12:19:10Z</time>
      </trkpt>
      <trkpt lat="44.95254" lon="4.08898">
        <ele>1176.79</ele>
        <time>2021-07-18T12:19:30Z</time>
      </trkpt>
      <trkpt lat="44.95276" lon="4.08882">
        <ele>1176.79</ele>
        <time>2021-07-18T12:19:49Z</time>
      </trkpt>
      <trkpt lat="44.95297" lon="4.0887">
        <ele>1176.79</ele>
        <time>2021-07-18T12:20:07Z</time>
      </trkpt>
      <trkpt lat="44.95322" lon="4.08857">
        <ele>1176.79</ele>
        <time>2021-07-18T12:20:28Z</time>
      </trkpt>
      <trkpt lat="44.95345" lon="4.08852">
        <ele>1177.75</ele>
        <time>2021-07-18T12:20:45Z</time>
      </trkpt>
      <trkpt lat="44.9537" lon="4.08848">
        <ele>1179.67</ele>
        <time>2021-07-18T12:21:06Z</time>
      </trkpt>
      <trkpt lat="44.95389" lon="4.08858">
        <ele>1180.64</ele>
        <time>2021-07-18T12:21:24Z</time>
      </trkpt>
      <trkpt lat="44.95405" lon="4.08878">
        <ele>1180.64</ele>
        <time>2021-07-18T12:21:41Z</time>
      </trkpt>
      <trkpt lat="44.95423" lon="4.08896">
        <ele>1181.6</ele>
        <time>2021-07-18T12:21:59Z</time>
      </trkpt>
      <trkpt lat="44.95439" lon="4.08912">
        <ele>1184</ele>
        <time>2021-07-18T12:22:16Z</time>
      </trkpt>
      <trkpt lat="44.9545" lon="4.08924">
        <ele>1184.48</ele>
        <time>2021-07-18T12:22:28Z</time>
      </trkpt>
      <trkpt lat="44.95454" lon="4.08928">
        <ele>1184.96</ele>
        <time>2021-07-18T12:22:32Z</time>
      </trkpt>
      <trkpt lat="44.95468" lon="4.08941">
        <ele>1185.92</ele>
        <time>2021-07-18T12:22:51Z</time>
      </trkpt>
      <trkpt lat="44.95476" lon="4.08949">
        <ele>1188.33</ele>
        <time>2021-07-18T12:23:05Z</time>
      </trkpt>
      <trkpt lat="44.95481" lon="4.08959">
        <ele>1189.29</ele>
        <time>2021-07-18T12:23:14Z</time>
      </trkpt>
      <trkpt lat="44.95481" lon="4.08966">
        <ele>1189.77</ele>
        <time>2021-07-18T12:23:18Z</time>
      </trkpt>
      <trkpt lat="44.9547" lon="4.08991">
        <ele>1193.61</ele>
        <time>2021-07-18T12:23:35Z</time>
      </trkpt>
      <trkpt lat="44.95457" lon="4.09013">
        <ele>1196.02</ele>
        <time>2021-07-18T12:23:50Z</time>
      </trkpt>
      <trkpt lat="44.95443" lon="4.0903">
        <ele>1199.38</ele>
        <time>2021-07-18T12:24:04Z</time>
      </trkpt>
      <trkpt lat="44.95424" lon="4.09053">
        <ele>1199.86</ele>
        <time>2021-07-18T12:24:22Z</time>
      </trkpt>
      <trkpt lat="44.95411" lon="4.09075">
        <ele>1198.42</ele>
        <time>2021-07-18T12:24:37Z</time>
      </trkpt>
      <trkpt lat="44.95392" lon="4.09099">
        <ele>1196.02</ele>
        <time>2021-07-18T12:24:53Z</time>
      </trkpt>
      <trkpt lat="44.95369" lon="4.09121">
        <ele>1192.65</ele>
        <time>2021-07-18T12:25:12Z</time>
      </trkpt>
      <trkpt lat="44.95356" lon="4.09139">
        <ele>1192.17</ele>
        <time>2021-07-18T12:25:28Z</time>
      </trkpt>
      <trkpt lat="44.95338" lon="4.0916">
        <ele>1193.13</ele>
        <time>2021-07-18T12:25:44Z</time>
      </trkpt>
      <trkpt lat="44.95326" lon="4.09176">
        <ele>1192.65</ele>
        <time>2021-07-18T12:25:56Z</time>
      </trkpt>
      <trkpt lat="44.95316" lon="4.09187">
        <ele>1191.21</ele>
        <time>2021-07-18T12:26:04Z</time>
      </trkpt>
      <trkpt lat="44.95308" lon="4.09198">
        <ele>1191.69</ele>
        <time>2021-07-18T12:26:13Z</time>
      </trkpt>
      <trkpt lat="44.95296" lon="4.0922">
        <ele>1188.33</ele>
        <time>2021-07-18T12:26:28Z</time>
      </trkpt>
      <trkpt lat="44.95297" lon="4.09222">
        <ele>1188.33</ele>
        <time>2021-07-18T12:26:30Z</time>
      </trkpt>
      <trkpt lat="44.95321" lon="4.09222">
        <ele>1184.48</ele>
        <time>2021-07-18T12:26:49Z</time>
      </trkpt>
      <trkpt lat="44.95345" lon="4.09214">
        <ele>1180.64</ele>
        <time>2021-07-18T12:27:08Z</time>
      </trkpt>
      <trkpt lat="44.95367" lon="4.09206">
        <ele>1179.67</ele>
        <time>2021-07-18T12:27:25Z</time>
      </trkpt>
      <trkpt lat="44.95394" lon="4.09197">
        <ele>1180.16</ele>
        <time>2021-07-18T12:27:45Z</time>
      </trkpt>
      <trkpt lat="44.95421" lon="4.0919">
        <ele>1179.67</ele>
        <time>2021-07-18T12:28:05Z</time>
      </trkpt>
      <trkpt lat="44.95444" lon="4.09186">
        <ele>1179.19</ele>
        <time>2021-07-18T12:28:23Z</time>
      </trkpt>
      <trkpt lat="44.95455" lon="4.09195">
        <ele>1178.23</ele>
        <time>2021-07-18T12:28:39Z</time>
      </trkpt>
      <trkpt lat="44.95467" lon="4.09208">
        <ele>1175.83</ele>
        <time>2021-07-18T12:28:55Z</time>
      </trkpt>
      <trkpt lat="44.9548" lon="4.09227">
        <ele>1173.43</ele>
        <time>2021-07-18T12:29:13Z</time>
      </trkpt>
      <trkpt lat="44.9548" lon="4.09229">
        <ele>1173.43</ele>
        <time>2021-07-18T12:29:14Z</time>
      </trkpt>
      <trkpt lat="44.95479" lon="4.09268">
        <ele>1172.47</ele>
        <time>2021-07-18T12:29:34Z</time>
      </trkpt>
      <trkpt lat="44.95474" lon="4.09301">
        <ele>1168.62</ele>
        <time>2021-07-18T12:29:53Z</time>
      </trkpt>
      <trkpt lat="44.95474" lon="4.09317">
        <ele>1166.22</ele>
        <time>2021-07-18T12:30:02Z</time>
      </trkpt>
      <trkpt lat="44.95475" lon="4.09325">
        <ele>1165.26</ele>
        <time>2021-07-18T12:30:16Z</time>
      </trkpt>
      <trkpt lat="44.95476" lon="4.0933">
        <ele>1164.29</ele>
        <time>2021-07-18T12:30:29Z</time>
      </trkpt>
      <trkpt lat="44.95476" lon="4.09343">
        <ele>1162.37</ele>
        <time>2021-07-18T12:30:41Z</time>
      </trkpt>
      <trkpt lat="44.95472" lon="4.09348">
        <ele>1161.89</ele>
        <time>2021-07-18T12:30:46Z</time>
      </trkpt>
      <trkpt lat="44.9547" lon="4.09352">
        <ele>1161.89</ele>
        <time>2021-07-18T12:30:49Z</time>
      </trkpt>
      <trkpt lat="44.95471" lon="4.09378">
        <ele>1159.01</ele>
        <time>2021-07-18T12:31:07Z</time>
      </trkpt>
      <trkpt lat="44.95471" lon="4.09401">
        <ele>1158.05</ele>
        <time>2021-07-18T12:31:22Z</time>
      </trkpt>
      <trkpt lat="44.95473" lon="4.09433">
        <ele>1156.12</ele>
        <time>2021-07-18T12:31:42Z</time>
      </trkpt>
      <trkpt lat="44.95474" lon="4.09452">
        <ele>1154.68</ele>
        <time>2021-07-18T12:31:56Z</time>
      </trkpt>
      <trkpt lat="44.95477" lon="4.0945">
        <ele>1155.64</ele>
        <time>2021-07-18T12:32:00Z</time>
      </trkpt>
      <trkpt lat="44.95488" lon="4.09449">
        <ele>1155.16</ele>
        <time>2021-07-18T12:32:13Z</time>
      </trkpt>
      <trkpt lat="44.95489" lon="4.09451">
        <ele>1155.16</ele>
        <time>2021-07-18T12:32:15Z</time>
      </trkpt>
      <trkpt lat="44.95494" lon="4.09458">
        <ele>1154.2</ele>
        <time>2021-07-18T12:32:28Z</time>
      </trkpt>
      <trkpt lat="44.95492" lon="4.09461">
        <ele>1154.2</ele>
        <time>2021-07-18T12:32:31Z</time>
      </trkpt>
      <trkpt lat="44.95479" lon="4.09479">
        <ele>1157.56</ele>
        <time>2021-07-18T12:32:47Z</time>
      </trkpt>
      <trkpt lat="44.95479" lon="4.09479">
        <ele>1157.56</ele>
        <time>2021-07-18T12:32:47Z</time>
      </trkpt>
      <trkpt lat="44.95473" lon="4.09488">
        <ele>1158.53</ele>
        <time>2021-07-18T12:32:55Z</time>
      </trkpt>
      <trkpt lat="44.95472" lon="4.09494">
        <ele>1158.53</ele>
        <time>2021-07-18T12:33:01Z</time>
      </trkpt>
      <trkpt lat="44.95473" lon="4.09497">
        <ele>1158.05</ele>
        <time>2021-07-18T12:33:03Z</time>
      </trkpt>
      <trkpt lat="44.9547" lon="4.09505">
        <ele>1158.53</ele>
        <time>2021-07-18T12:33:09Z</time>
      </trkpt>
      <trkpt lat="44.9547" lon="4.09507">
        <ele>1158.53</ele>
        <time>2021-07-18T12:33:11Z</time>
      </trkpt>
      <trkpt lat="44.95454" lon="4.09533">
        <ele>1159.01</ele>
        <time>2021-07-18T12:33:30Z</time>
      </trkpt>
      <trkpt lat="44.95449" lon="4.09543">
        <ele>1159.97</ele>
        <time>2021-07-18T12:33:37Z</time>
      </trkpt>
      <trkpt lat="44.95446" lon="4.09547">
        <ele>1159.49</ele>
        <time>2021-07-18T12:33:48Z</time>
      </trkpt>
      <trkpt lat="44.95435" lon="4.0957">
        <ele>1159.49</ele>
        <time>2021-07-18T12:34:05Z</time>
      </trkpt>
      <trkpt lat="44.95434" lon="4.09575">
        <ele>1157.08</ele>
        <time>2021-07-18T12:34:18Z</time>
      </trkpt>
      <trkpt lat="44.95428" lon="4.09588">
        <ele>1158.05</ele>
        <time>2021-07-18T12:34:37Z</time>
      </trkpt>
      <trkpt lat="44.95422" lon="4.09605">
        <ele>1159.97</ele>
        <time>2021-07-18T12:34:47Z</time>
      </trkpt>
      <trkpt lat="44.95409" lon="4.09634">
        <ele>1160.45</ele>
        <time>2021-07-18T12:35:08Z</time>
      </trkpt>
      <trkpt lat="44.95407" lon="4.09641">
        <ele>1160.45</ele>
        <time>2021-07-18T12:35:13Z</time>
      </trkpt>
      <trkpt lat="44.95402" lon="4.09664">
        <ele>1161.89</ele>
        <time>2021-07-18T12:35:27Z</time>
      </trkpt>
      <trkpt lat="44.95399" lon="4.09676">
        <ele>1162.85</ele>
        <time>2021-07-18T12:35:36Z</time>
      </trkpt>
      <trkpt lat="44.95398" lon="4.097">
        <ele>1161.89</ele>
        <time>2021-07-18T12:35:50Z</time>
      </trkpt>
      <trkpt lat="44.95407" lon="4.09735">
        <ele>1157.56</ele>
        <time>2021-07-18T12:36:09Z</time>
      </trkpt>
      <trkpt lat="44.95421" lon="4.09764">
        <ele>1158.05</ele>
        <time>2021-07-18T12:36:28Z</time>
      </trkpt>
      <trkpt lat="44.95438" lon="4.09797">
        <ele>1158.53</ele>
        <time>2021-07-18T12:36:50Z</time>
      </trkpt>
      <trkpt lat="44.95442" lon="4.09806">
        <ele>1157.56</ele>
        <time>2021-07-18T12:36:57Z</time>
      </trkpt>
      <trkpt lat="44.9544" lon="4.0981">
        <ele>1159.01</ele>
        <time>2021-07-18T12:37:13Z</time>
      </trkpt>
      <trkpt lat="44.95442" lon="4.09812">
        <ele>1159.01</ele>
        <time>2021-07-18T12:37:19Z</time>
      </trkpt>
      <trkpt lat="44.95445" lon="4.09813">
        <ele>1159.49</ele>
        <time>2021-07-18T12:37:22Z</time>
      </trkpt>
      <trkpt lat="44.95458" lon="4.09829">
        <ele>1160.45</ele>
        <time>2021-07-18T12:37:36Z</time>
      </trkpt>
      <trkpt lat="44.95459" lon="4.09832">
        <ele>1160.45</ele>
        <time>2021-07-18T12:37:38Z</time>
      </trkpt>
      <trkpt lat="44.95471" lon="4.09851">
        <ele>1162.37</ele>
        <time>2021-07-18T12:37:57Z</time>
      </trkpt>
      <trkpt lat="44.95471" lon="4.09852">
        <ele>1162.85</ele>
        <time>2021-07-18T12:38:08Z</time>
      </trkpt>
      <trkpt lat="44.9547" lon="4.09852">
        <ele>1162.85</ele>
        <time>2021-07-18T12:38:09Z</time>
      </trkpt>
      <trkpt lat="44.9547" lon="4.09852">
        <ele>1162.37</ele>
        <time>2021-07-18T12:38:20Z</time>
      </trkpt>
      <trkpt lat="44.9547" lon="4.09853">
        <ele>1161.89</ele>
        <time>2021-07-18T12:38:44Z</time>
      </trkpt>
      <trkpt lat="44.9547" lon="4.09852">
        <ele>1162.37</ele>
        <time>2021-07-18T12:38:57Z</time>
      </trkpt>
      <trkpt lat="44.9547" lon="4.09853">
        <ele>1162.85</ele>
        <time>2021-07-18T12:39:26Z</time>
      </trkpt>
      <trkpt lat="44.95472" lon="4.09855">
        <ele>1162.85</ele>
        <time>2021-07-18T12:39:28Z</time>
      </trkpt>
      <trkpt lat="44.95473" lon="4.09859">
        <ele>1162.85</ele>
        <time>2021-07-18T12:39:31Z</time>
      </trkpt>
      <trkpt lat="44.95476" lon="4.09863">
        <ele>1161.89</ele>
        <time>2021-07-18T12:39:35Z</time>
      </trkpt>
      <trkpt lat="44.95483" lon="4.09874">
        <ele>1162.37</ele>
        <time>2021-07-18T12:39:47Z</time>
      </trkpt>
      <trkpt lat="44.95489" lon="4.09884">
        <ele>1163.33</ele>
        <time>2021-07-18T12:40:01Z</time>
      </trkpt>
      <trkpt lat="44.95489" lon="4.09884">
        <ele>1164.77</ele>
        <time>2021-07-18T12:40:27Z</time>
      </trkpt>
      <trkpt lat="44.95492" lon="4.09902">
        <ele>1165.26</ele>
        <time>2021-07-18T12:40:41Z</time>
      </trkpt>
      <trkpt lat="44.95496" lon="4.0992">
        <ele>1165.74</ele>
        <time>2021-07-18T12:40:54Z</time>
      </trkpt>
      <trkpt lat="44.95496" lon="4.09925">
        <ele>1166.22</ele>
        <time>2021-07-18T12:40:57Z</time>
      </trkpt>
      <trkpt lat="44.955" lon="4.09947">
        <ele>1167.66</ele>
        <time>2021-07-18T12:41:16Z</time>
      </trkpt>
      <trkpt lat="44.95503" lon="4.09966">
        <ele>1170.54</ele>
        <time>2021-07-18T12:41:31Z</time>
      </trkpt>
      <trkpt lat="44.95505" lon="4.09992">
        <ele>1172.95</ele>
        <time>2021-07-18T12:41:47Z</time>
      </trkpt>
      <trkpt lat="44.95509" lon="4.10007">
        <ele>1173.91</ele>
        <time>2021-07-18T12:42:02Z</time>
      </trkpt>
      <trkpt lat="44.95511" lon="4.1001">
        <ele>1165.2</ele>
      </trkpt>
      <trkpt lat="44.95516" lon="4.10006">
        <ele>1165.1</ele>
      </trkpt>
      <trkpt lat="44.9552" lon="4.10016">
        <ele>1165.2</ele>
      </trkpt>
      <trkpt lat="44.95536" lon="4.10017">
        <ele>1164.8</ele>
      </trkpt>
      <trkpt lat="44.95551" lon="4.10014">
        <ele>1164.6</ele>
      </trkpt>
      <trkpt lat="44.95589" lon="4.10007">
        <ele>1163.6</ele>
      </trkpt>
      <trkpt lat="44.95593" lon="4.10006">
        <ele>1163.3</ele>
      </trkpt>
      <trkpt lat="44.9561" lon="4.10013">
        <ele>1162.1</ele>
      </trkpt>
      <trkpt lat="44.95611" lon="4.10014">
        <ele>1162</ele>
      </trkpt>
      <trkpt lat="44.95606" lon="4.10047">
        <ele>1161.7</ele>
      </trkpt>
      <trkpt lat="44.95604" lon="4.10082">
        <ele>1161.3</ele>
      </trkpt>
      <trkpt lat="44.95596" lon="4.10135">
        <ele>1162.1</ele>
      </trkpt>
      <trkpt lat="44.95595" lon="4.10134">
        <ele>1162.2</ele>
      </trkpt>
      <trkpt lat="44.95596" lon="4.10135">
        <ele>1162.1</ele>
      </trkpt>
      <trkpt lat="44.95608" lon="4.1015">
        <ele>1161.6</ele>
      </trkpt>
      <trkpt lat="44.95632" lon="4.10188">
        <ele>1161.1</ele>
      </trkpt>
    </trkseg>
  </trk>
</gpx>